<?xml version="1.0" encoding="UTF-8" standalone="no" ?>
<gpx xmlns="http://www.topografix.com/GPX/1/1" xmlns:xsi="http://www.w3.org/2001/XMLSchema-instance" xsi:schemaLocation="http://www.topografix.com/GPX/1/1 http://www.topografix.com/GPX/1/1/gpx.xsd" version="1.1" creator="VisuGPX - https://www.visugpx.com">
  <metadata>
    <name>OMS CHENOVE Marche du vendredi 08 mars 2013</name>
    <desc><![CDATA[De Fixin à Fixin]]></desc>
  </metadata>
  <trk>
    <name><![CDATA[OMS CHENOVE Marche du vendredi 08 mars 2013_1]]></name>
    <trkseg>
      <trkpt lat="47.24578" lon="4.96655">
        <ele>335.637</ele>
        <time>2013-03-08T09:15:04Z</time>
      </trkpt>
      <trkpt lat="47.24578" lon="4.96655">
        <ele>335.637</ele>
        <time>2013-03-08T09:15:15Z</time>
      </trkpt>
      <trkpt lat="47.24578" lon="4.96655">
        <ele>335.445</ele>
        <time>2013-03-08T09:15:26Z</time>
      </trkpt>
      <trkpt lat="47.2458" lon="4.96653">
        <ele>334.687</ele>
        <time>2013-03-08T09:15:37Z</time>
      </trkpt>
      <trkpt lat="47.2458" lon="4.9665">
        <ele>332.265</ele>
        <time>2013-03-08T09:15:48Z</time>
      </trkpt>
      <trkpt lat="47.24582" lon="4.96638">
        <ele>329.648</ele>
        <time>2013-03-08T09:15:59Z</time>
      </trkpt>
      <trkpt lat="47.2458" lon="4.96625">
        <ele>330.478</ele>
        <time>2013-03-08T09:16:10Z</time>
      </trkpt>
      <trkpt lat="47.24578" lon="4.96608">
        <ele>333.319</ele>
        <time>2013-03-08T09:16:21Z</time>
      </trkpt>
      <trkpt lat="47.24575" lon="4.9659">
        <ele>334.616</ele>
        <time>2013-03-08T09:16:32Z</time>
      </trkpt>
      <trkpt lat="47.24575" lon="4.96575">
        <ele>335.773</ele>
        <time>2013-03-08T09:16:43Z</time>
      </trkpt>
      <trkpt lat="47.2457" lon="4.96557">
        <ele>334.863</ele>
        <time>2013-03-08T09:16:54Z</time>
      </trkpt>
      <trkpt lat="47.24567" lon="4.96547">
        <ele>337.099</ele>
        <time>2013-03-08T09:17:05Z</time>
      </trkpt>
      <trkpt lat="47.24563" lon="4.96532">
        <ele>338.291</ele>
        <time>2013-03-08T09:17:16Z</time>
      </trkpt>
      <trkpt lat="47.24565" lon="4.96518">
        <ele>337.884</ele>
        <time>2013-03-08T09:17:27Z</time>
      </trkpt>
      <trkpt lat="47.24568" lon="4.965">
        <ele>339.57</ele>
        <time>2013-03-08T09:17:38Z</time>
      </trkpt>
      <trkpt lat="47.2457" lon="4.9648">
        <ele>341.436</ele>
        <time>2013-03-08T09:17:49Z</time>
      </trkpt>
      <trkpt lat="47.24572" lon="4.96462">
        <ele>342.863</ele>
        <time>2013-03-08T09:18:00Z</time>
      </trkpt>
      <trkpt lat="47.24575" lon="4.96445">
        <ele>345.809</ele>
        <time>2013-03-08T09:18:11Z</time>
      </trkpt>
      <trkpt lat="47.24577" lon="4.96433">
        <ele>348.608</ele>
        <time>2013-03-08T09:18:22Z</time>
      </trkpt>
      <trkpt lat="47.2458" lon="4.96413">
        <ele>350.25</ele>
        <time>2013-03-08T09:18:33Z</time>
      </trkpt>
      <trkpt lat="47.2458" lon="4.96397">
        <ele>352.708</ele>
        <time>2013-03-08T09:18:44Z</time>
      </trkpt>
      <trkpt lat="47.2458" lon="4.96377">
        <ele>352.858</ele>
        <time>2013-03-08T09:18:55Z</time>
      </trkpt>
      <trkpt lat="47.2458" lon="4.96357">
        <ele>355.239</ele>
        <time>2013-03-08T09:19:06Z</time>
      </trkpt>
      <trkpt lat="47.24583" lon="4.96335">
        <ele>356.978</ele>
        <time>2013-03-08T09:19:17Z</time>
      </trkpt>
      <trkpt lat="47.24587" lon="4.96308">
        <ele>359.414</ele>
        <time>2013-03-08T09:19:28Z</time>
      </trkpt>
      <trkpt lat="47.2459" lon="4.9629">
        <ele>360.788</ele>
        <time>2013-03-08T09:19:39Z</time>
      </trkpt>
      <trkpt lat="47.24595" lon="4.96268">
        <ele>360.125</ele>
        <time>2013-03-08T09:19:50Z</time>
      </trkpt>
      <trkpt lat="47.24598" lon="4.96253">
        <ele>361.528</ele>
        <time>2013-03-08T09:20:01Z</time>
      </trkpt>
      <trkpt lat="47.24603" lon="4.96235">
        <ele>363.265</ele>
        <time>2013-03-08T09:20:12Z</time>
      </trkpt>
      <trkpt lat="47.24608" lon="4.96213">
        <ele>360.925</ele>
        <time>2013-03-08T09:20:23Z</time>
      </trkpt>
      <trkpt lat="47.24613" lon="4.96193">
        <ele>359.666</ele>
        <time>2013-03-08T09:20:34Z</time>
      </trkpt>
      <trkpt lat="47.24615" lon="4.9617">
        <ele>356.538</ele>
        <time>2013-03-08T09:20:45Z</time>
      </trkpt>
      <trkpt lat="47.24622" lon="4.96145">
        <ele>355.178</ele>
        <time>2013-03-08T09:20:56Z</time>
      </trkpt>
      <trkpt lat="47.24627" lon="4.96123">
        <ele>356.285</ele>
        <time>2013-03-08T09:21:07Z</time>
      </trkpt>
      <trkpt lat="47.2463" lon="4.96105">
        <ele>357.677</ele>
        <time>2013-03-08T09:21:18Z</time>
      </trkpt>
      <trkpt lat="47.24633" lon="4.96087">
        <ele>357.66</ele>
        <time>2013-03-08T09:21:29Z</time>
      </trkpt>
      <trkpt lat="47.24637" lon="4.96072">
        <ele>358.61</ele>
        <time>2013-03-08T09:21:40Z</time>
      </trkpt>
      <trkpt lat="47.2464" lon="4.9605">
        <ele>359.982</ele>
        <time>2013-03-08T09:21:51Z</time>
      </trkpt>
      <trkpt lat="47.24642" lon="4.96025">
        <ele>358.489</ele>
        <time>2013-03-08T09:22:02Z</time>
      </trkpt>
      <trkpt lat="47.24647" lon="4.96012">
        <ele>360.676</ele>
        <time>2013-03-08T09:22:13Z</time>
      </trkpt>
      <trkpt lat="47.24653" lon="4.95992">
        <ele>361.463</ele>
        <time>2013-03-08T09:22:24Z</time>
      </trkpt>
      <trkpt lat="47.24658" lon="4.95972">
        <ele>360.441</ele>
        <time>2013-03-08T09:22:35Z</time>
      </trkpt>
      <trkpt lat="47.24663" lon="4.95952">
        <ele>359.124</ele>
        <time>2013-03-08T09:22:46Z</time>
      </trkpt>
      <trkpt lat="47.24668" lon="4.95927">
        <ele>360.125</ele>
        <time>2013-03-08T09:22:57Z</time>
      </trkpt>
      <trkpt lat="47.24672" lon="4.95905">
        <ele>362.074</ele>
        <time>2013-03-08T09:23:08Z</time>
      </trkpt>
      <trkpt lat="47.2468" lon="4.95885">
        <ele>364.172</ele>
        <time>2013-03-08T09:23:19Z</time>
      </trkpt>
      <trkpt lat="47.24687" lon="4.95868">
        <ele>366.862</ele>
        <time>2013-03-08T09:23:30Z</time>
      </trkpt>
      <trkpt lat="47.24692" lon="4.95853">
        <ele>367.565</ele>
        <time>2013-03-08T09:23:41Z</time>
      </trkpt>
      <trkpt lat="47.24702" lon="4.95835">
        <ele>370.083</ele>
        <time>2013-03-08T09:23:52Z</time>
      </trkpt>
      <trkpt lat="47.2471" lon="4.95815">
        <ele>370.987</ele>
        <time>2013-03-08T09:24:03Z</time>
      </trkpt>
      <trkpt lat="47.24715" lon="4.95803">
        <ele>372.847</ele>
        <time>2013-03-08T09:24:14Z</time>
      </trkpt>
      <trkpt lat="47.24723" lon="4.9579">
        <ele>372.628</ele>
        <time>2013-03-08T09:24:25Z</time>
      </trkpt>
      <trkpt lat="47.2473" lon="4.95772">
        <ele>374.736</ele>
        <time>2013-03-08T09:24:36Z</time>
      </trkpt>
      <trkpt lat="47.24742" lon="4.95752">
        <ele>374.571</ele>
        <time>2013-03-08T09:24:47Z</time>
      </trkpt>
      <trkpt lat="47.2475" lon="4.95732">
        <ele>377.082</ele>
        <time>2013-03-08T09:24:58Z</time>
      </trkpt>
      <trkpt lat="47.24758" lon="4.95713">
        <ele>380.23</ele>
        <time>2013-03-08T09:25:09Z</time>
      </trkpt>
      <trkpt lat="47.24767" lon="4.95697">
        <ele>381.389</ele>
        <time>2013-03-08T09:25:20Z</time>
      </trkpt>
      <trkpt lat="47.24775" lon="4.95682">
        <ele>384.485</ele>
        <time>2013-03-08T09:25:31Z</time>
      </trkpt>
      <trkpt lat="47.24785" lon="4.95665">
        <ele>382.403</ele>
        <time>2013-03-08T09:25:42Z</time>
      </trkpt>
      <trkpt lat="47.24793" lon="4.95647">
        <ele>382.948</ele>
        <time>2013-03-08T09:25:53Z</time>
      </trkpt>
      <trkpt lat="47.24803" lon="4.95632">
        <ele>382.585</ele>
        <time>2013-03-08T09:26:04Z</time>
      </trkpt>
      <trkpt lat="47.24813" lon="4.95617">
        <ele>384.291</ele>
        <time>2013-03-08T09:26:15Z</time>
      </trkpt>
      <trkpt lat="47.24828" lon="4.95607">
        <ele>386.129</ele>
        <time>2013-03-08T09:26:26Z</time>
      </trkpt>
      <trkpt lat="47.24838" lon="4.95597">
        <ele>388.839</ele>
        <time>2013-03-08T09:26:37Z</time>
      </trkpt>
      <trkpt lat="47.2485" lon="4.95578">
        <ele>393.899</ele>
        <time>2013-03-08T09:26:48Z</time>
      </trkpt>
      <trkpt lat="47.24862" lon="4.9556">
        <ele>394.766</ele>
        <time>2013-03-08T09:26:59Z</time>
      </trkpt>
      <trkpt lat="47.2487" lon="4.95545">
        <ele>396.25</ele>
        <time>2013-03-08T09:27:10Z</time>
      </trkpt>
      <trkpt lat="47.24875" lon="4.95528">
        <ele>396.483</ele>
        <time>2013-03-08T09:27:21Z</time>
      </trkpt>
      <trkpt lat="47.24883" lon="4.95505">
        <ele>394.285</ele>
        <time>2013-03-08T09:27:32Z</time>
      </trkpt>
      <trkpt lat="47.24892" lon="4.95488">
        <ele>395.331</ele>
        <time>2013-03-08T09:27:43Z</time>
      </trkpt>
      <trkpt lat="47.249" lon="4.95472">
        <ele>396.938</ele>
        <time>2013-03-08T09:27:54Z</time>
      </trkpt>
      <trkpt lat="47.24907" lon="4.95453">
        <ele>396.508</ele>
        <time>2013-03-08T09:28:05Z</time>
      </trkpt>
      <trkpt lat="47.24912" lon="4.9544">
        <ele>400.197</ele>
        <time>2013-03-08T09:28:16Z</time>
      </trkpt>
      <trkpt lat="47.2492" lon="4.95423">
        <ele>400.716</ele>
        <time>2013-03-08T09:28:27Z</time>
      </trkpt>
      <trkpt lat="47.2493" lon="4.95403">
        <ele>403.679</ele>
        <time>2013-03-08T09:28:38Z</time>
      </trkpt>
      <trkpt lat="47.24942" lon="4.95387">
        <ele>405.124</ele>
        <time>2013-03-08T09:28:49Z</time>
      </trkpt>
      <trkpt lat="47.24952" lon="4.95372">
        <ele>407.031</ele>
        <time>2013-03-08T09:29:00Z</time>
      </trkpt>
      <trkpt lat="47.24958" lon="4.95363">
        <ele>408.123</ele>
        <time>2013-03-08T09:29:11Z</time>
      </trkpt>
      <trkpt lat="47.24967" lon="4.95347">
        <ele>408.676</ele>
        <time>2013-03-08T09:29:22Z</time>
      </trkpt>
      <trkpt lat="47.24975" lon="4.95328">
        <ele>411.607</ele>
        <time>2013-03-08T09:29:33Z</time>
      </trkpt>
      <trkpt lat="47.24982" lon="4.95322">
        <ele>414.411</ele>
        <time>2013-03-08T09:29:44Z</time>
      </trkpt>
      <trkpt lat="47.24988" lon="4.95303">
        <ele>416.704</ele>
        <time>2013-03-08T09:29:55Z</time>
      </trkpt>
      <trkpt lat="47.24997" lon="4.95288">
        <ele>420.151</ele>
        <time>2013-03-08T09:30:06Z</time>
      </trkpt>
      <trkpt lat="47.25005" lon="4.95275">
        <ele>421.277</ele>
        <time>2013-03-08T09:30:17Z</time>
      </trkpt>
      <trkpt lat="47.2501" lon="4.95253">
        <ele>425.192</ele>
        <time>2013-03-08T09:30:28Z</time>
      </trkpt>
      <trkpt lat="47.25018" lon="4.95243">
        <ele>425.907</ele>
        <time>2013-03-08T09:30:39Z</time>
      </trkpt>
      <trkpt lat="47.25022" lon="4.95235">
        <ele>425.644</ele>
        <time>2013-03-08T09:30:50Z</time>
      </trkpt>
      <trkpt lat="47.25028" lon="4.95215">
        <ele>423.767</ele>
        <time>2013-03-08T09:31:01Z</time>
      </trkpt>
      <trkpt lat="47.25032" lon="4.95188">
        <ele>421.415</ele>
        <time>2013-03-08T09:31:12Z</time>
      </trkpt>
      <trkpt lat="47.25042" lon="4.95167">
        <ele>419.51</ele>
        <time>2013-03-08T09:31:23Z</time>
      </trkpt>
      <trkpt lat="47.25052" lon="4.9514">
        <ele>417.254</ele>
        <time>2013-03-08T09:31:34Z</time>
      </trkpt>
      <trkpt lat="47.25065" lon="4.95118">
        <ele>415.874</ele>
        <time>2013-03-08T09:31:45Z</time>
      </trkpt>
      <trkpt lat="47.25075" lon="4.95107">
        <ele>415.925</ele>
        <time>2013-03-08T09:31:56Z</time>
      </trkpt>
      <trkpt lat="47.25088" lon="4.9509">
        <ele>415.945</ele>
        <time>2013-03-08T09:32:07Z</time>
      </trkpt>
      <trkpt lat="47.25093" lon="4.95082">
        <ele>416.354</ele>
        <time>2013-03-08T09:32:18Z</time>
      </trkpt>
      <trkpt lat="47.25097" lon="4.9506">
        <ele>415.379</ele>
        <time>2013-03-08T09:32:29Z</time>
      </trkpt>
      <trkpt lat="47.25102" lon="4.95052">
        <ele>413.759</ele>
        <time>2013-03-08T09:32:40Z</time>
      </trkpt>
      <trkpt lat="47.25103" lon="4.95048">
        <ele>418.906</ele>
        <time>2013-03-08T09:32:51Z</time>
      </trkpt>
      <trkpt lat="47.25107" lon="4.95042">
        <ele>421.579</ele>
        <time>2013-03-08T09:33:02Z</time>
      </trkpt>
      <trkpt lat="47.25108" lon="4.95037">
        <ele>424.119</ele>
        <time>2013-03-08T09:33:13Z</time>
      </trkpt>
      <trkpt lat="47.25112" lon="4.95022">
        <ele>429.381</ele>
        <time>2013-03-08T09:33:24Z</time>
      </trkpt>
      <trkpt lat="47.25113" lon="4.95013">
        <ele>434.062</ele>
        <time>2013-03-08T09:33:35Z</time>
      </trkpt>
      <trkpt lat="47.25117" lon="4.95">
        <ele>434.39</ele>
        <time>2013-03-08T09:33:46Z</time>
      </trkpt>
      <trkpt lat="47.25118" lon="4.94992">
        <ele>434.659</ele>
        <time>2013-03-08T09:33:57Z</time>
      </trkpt>
      <trkpt lat="47.2512" lon="4.94983">
        <ele>435.981</ele>
        <time>2013-03-08T09:34:08Z</time>
      </trkpt>
      <trkpt lat="47.2512" lon="4.94972">
        <ele>435.912</ele>
        <time>2013-03-08T09:34:19Z</time>
      </trkpt>
      <trkpt lat="47.2512" lon="4.94968">
        <ele>436.97</ele>
        <time>2013-03-08T09:34:30Z</time>
      </trkpt>
      <trkpt lat="47.25122" lon="4.94963">
        <ele>437.35</ele>
        <time>2013-03-08T09:34:41Z</time>
      </trkpt>
      <trkpt lat="47.25123" lon="4.94958">
        <ele>439.295</ele>
        <time>2013-03-08T09:34:52Z</time>
      </trkpt>
      <trkpt lat="47.25123" lon="4.94958">
        <ele>440.841</ele>
        <time>2013-03-08T09:35:03Z</time>
      </trkpt>
      <trkpt lat="47.25123" lon="4.94957">
        <ele>441.611</ele>
        <time>2013-03-08T09:35:14Z</time>
      </trkpt>
      <trkpt lat="47.25123" lon="4.94957">
        <ele>442.46</ele>
        <time>2013-03-08T09:35:25Z</time>
      </trkpt>
      <trkpt lat="47.25125" lon="4.94952">
        <ele>441.914</ele>
        <time>2013-03-08T09:35:36Z</time>
      </trkpt>
      <trkpt lat="47.25128" lon="4.94948">
        <ele>442.314</ele>
        <time>2013-03-08T09:35:47Z</time>
      </trkpt>
      <trkpt lat="47.25128" lon="4.94945">
        <ele>441.647</ele>
        <time>2013-03-08T09:35:58Z</time>
      </trkpt>
      <trkpt lat="47.25128" lon="4.94945">
        <ele>442.093</ele>
        <time>2013-03-08T09:36:09Z</time>
      </trkpt>
      <trkpt lat="47.25128" lon="4.94945">
        <ele>442.093</ele>
        <time>2013-03-08T09:36:20Z</time>
      </trkpt>
      <trkpt lat="47.25128" lon="4.94945">
        <ele>442.093</ele>
        <time>2013-03-08T09:36:31Z</time>
      </trkpt>
      <trkpt lat="47.25128" lon="4.94945">
        <ele>442.093</ele>
        <time>2013-03-08T09:36:42Z</time>
      </trkpt>
      <trkpt lat="47.25128" lon="4.94945">
        <ele>442.093</ele>
        <time>2013-03-08T09:36:53Z</time>
      </trkpt>
      <trkpt lat="47.25128" lon="4.94945">
        <ele>442.093</ele>
        <time>2013-03-08T09:37:04Z</time>
      </trkpt>
      <trkpt lat="47.25128" lon="4.94945">
        <ele>442.093</ele>
        <time>2013-03-08T09:37:15Z</time>
      </trkpt>
      <trkpt lat="47.25128" lon="4.94945">
        <ele>442.093</ele>
        <time>2013-03-08T09:37:26Z</time>
      </trkpt>
      <trkpt lat="47.25128" lon="4.94945">
        <ele>442.093</ele>
        <time>2013-03-08T09:37:37Z</time>
      </trkpt>
      <trkpt lat="47.25128" lon="4.94945">
        <ele>442.093</ele>
        <time>2013-03-08T09:37:48Z</time>
      </trkpt>
      <trkpt lat="47.25128" lon="4.94945">
        <ele>442.093</ele>
        <time>2013-03-08T09:37:59Z</time>
      </trkpt>
      <trkpt lat="47.25128" lon="4.94945">
        <ele>442.093</ele>
        <time>2013-03-08T09:38:10Z</time>
      </trkpt>
      <trkpt lat="47.25128" lon="4.94945">
        <ele>442.093</ele>
        <time>2013-03-08T09:38:21Z</time>
      </trkpt>
      <trkpt lat="47.25128" lon="4.94945">
        <ele>442.093</ele>
        <time>2013-03-08T09:38:32Z</time>
      </trkpt>
      <trkpt lat="47.25128" lon="4.94943">
        <ele>441.599</ele>
        <time>2013-03-08T09:38:43Z</time>
      </trkpt>
      <trkpt lat="47.2513" lon="4.94943">
        <ele>441.116</ele>
        <time>2013-03-08T09:38:54Z</time>
      </trkpt>
      <trkpt lat="47.2513" lon="4.94943">
        <ele>441.116</ele>
        <time>2013-03-08T09:39:05Z</time>
      </trkpt>
      <trkpt lat="47.25132" lon="4.94933">
        <ele>440.276</ele>
        <time>2013-03-08T09:39:16Z</time>
      </trkpt>
      <trkpt lat="47.25132" lon="4.94922">
        <ele>441.797</ele>
        <time>2013-03-08T09:39:27Z</time>
      </trkpt>
      <trkpt lat="47.25127" lon="4.94905">
        <ele>445.083</ele>
        <time>2013-03-08T09:39:38Z</time>
      </trkpt>
      <trkpt lat="47.25118" lon="4.94892">
        <ele>451.363</ele>
        <time>2013-03-08T09:39:49Z</time>
      </trkpt>
      <trkpt lat="47.25112" lon="4.9487">
        <ele>454.782</ele>
        <time>2013-03-08T09:40:00Z</time>
      </trkpt>
      <trkpt lat="47.25108" lon="4.94853">
        <ele>457.965</ele>
        <time>2013-03-08T09:40:11Z</time>
      </trkpt>
      <trkpt lat="47.25107" lon="4.9484">
        <ele>458.122</ele>
        <time>2013-03-08T09:40:22Z</time>
      </trkpt>
      <trkpt lat="47.25103" lon="4.94823">
        <ele>458.933</ele>
        <time>2013-03-08T09:40:33Z</time>
      </trkpt>
      <trkpt lat="47.25098" lon="4.94803">
        <ele>460.229</ele>
        <time>2013-03-08T09:40:44Z</time>
      </trkpt>
      <trkpt lat="47.25093" lon="4.94788">
        <ele>462.167</ele>
        <time>2013-03-08T09:40:55Z</time>
      </trkpt>
      <trkpt lat="47.25087" lon="4.9477">
        <ele>462.339</ele>
        <time>2013-03-08T09:41:06Z</time>
      </trkpt>
      <trkpt lat="47.2508" lon="4.9475">
        <ele>463.014</ele>
        <time>2013-03-08T09:41:17Z</time>
      </trkpt>
      <trkpt lat="47.25072" lon="4.94732">
        <ele>464.178</ele>
        <time>2013-03-08T09:41:28Z</time>
      </trkpt>
      <trkpt lat="47.25062" lon="4.94713">
        <ele>465.032</ele>
        <time>2013-03-08T09:41:39Z</time>
      </trkpt>
      <trkpt lat="47.2505" lon="4.94705">
        <ele>467.74</ele>
        <time>2013-03-08T09:41:50Z</time>
      </trkpt>
      <trkpt lat="47.25037" lon="4.94683">
        <ele>468.512</ele>
        <time>2013-03-08T09:42:01Z</time>
      </trkpt>
      <trkpt lat="47.25028" lon="4.94662">
        <ele>467.259</ele>
        <time>2013-03-08T09:42:12Z</time>
      </trkpt>
      <trkpt lat="47.25022" lon="4.94638">
        <ele>468.181</ele>
        <time>2013-03-08T09:42:23Z</time>
      </trkpt>
      <trkpt lat="47.25015" lon="4.94617">
        <ele>469.238</ele>
        <time>2013-03-08T09:42:34Z</time>
      </trkpt>
      <trkpt lat="47.25008" lon="4.94608">
        <ele>470.117</ele>
        <time>2013-03-08T09:42:45Z</time>
      </trkpt>
      <trkpt lat="47.24998" lon="4.94593">
        <ele>470.24</ele>
        <time>2013-03-08T09:42:56Z</time>
      </trkpt>
      <trkpt lat="47.24992" lon="4.94583">
        <ele>471.304</ele>
        <time>2013-03-08T09:43:07Z</time>
      </trkpt>
      <trkpt lat="47.24987" lon="4.94562">
        <ele>471.408</ele>
        <time>2013-03-08T09:43:18Z</time>
      </trkpt>
      <trkpt lat="47.24972" lon="4.94547">
        <ele>474.617</ele>
        <time>2013-03-08T09:43:29Z</time>
      </trkpt>
      <trkpt lat="47.2496" lon="4.94522">
        <ele>474</ele>
        <time>2013-03-08T09:43:40Z</time>
      </trkpt>
      <trkpt lat="47.24952" lon="4.94508">
        <ele>473.695</ele>
        <time>2013-03-08T09:43:51Z</time>
      </trkpt>
      <trkpt lat="47.24943" lon="4.94495">
        <ele>474.763</ele>
        <time>2013-03-08T09:44:02Z</time>
      </trkpt>
      <trkpt lat="47.24938" lon="4.94477">
        <ele>474.619</ele>
        <time>2013-03-08T09:44:13Z</time>
      </trkpt>
      <trkpt lat="47.24925" lon="4.94458">
        <ele>476.135</ele>
        <time>2013-03-08T09:44:24Z</time>
      </trkpt>
      <trkpt lat="47.24918" lon="4.94437">
        <ele>476.331</ele>
        <time>2013-03-08T09:44:35Z</time>
      </trkpt>
      <trkpt lat="47.24912" lon="4.94427">
        <ele>476.591</ele>
        <time>2013-03-08T09:44:46Z</time>
      </trkpt>
      <trkpt lat="47.24905" lon="4.94403">
        <ele>477.153</ele>
        <time>2013-03-08T09:44:57Z</time>
      </trkpt>
      <trkpt lat="47.249" lon="4.94385">
        <ele>476.155</ele>
        <time>2013-03-08T09:45:08Z</time>
      </trkpt>
      <trkpt lat="47.24897" lon="4.94368">
        <ele>478.465</ele>
        <time>2013-03-08T09:45:19Z</time>
      </trkpt>
      <trkpt lat="47.24892" lon="4.9434">
        <ele>476.907</ele>
        <time>2013-03-08T09:45:30Z</time>
      </trkpt>
      <trkpt lat="47.24887" lon="4.9432">
        <ele>479.18</ele>
        <time>2013-03-08T09:45:41Z</time>
      </trkpt>
      <trkpt lat="47.24878" lon="4.94303">
        <ele>482.228</ele>
        <time>2013-03-08T09:45:52Z</time>
      </trkpt>
      <trkpt lat="47.2487" lon="4.94288">
        <ele>484.294</ele>
        <time>2013-03-08T09:46:03Z</time>
      </trkpt>
      <trkpt lat="47.24863" lon="4.94267">
        <ele>485.258</ele>
        <time>2013-03-08T09:46:14Z</time>
      </trkpt>
      <trkpt lat="47.24855" lon="4.94243">
        <ele>487.152</ele>
        <time>2013-03-08T09:46:25Z</time>
      </trkpt>
      <trkpt lat="47.24852" lon="4.94222">
        <ele>488.671</ele>
        <time>2013-03-08T09:46:36Z</time>
      </trkpt>
      <trkpt lat="47.24843" lon="4.94205">
        <ele>489.53</ele>
        <time>2013-03-08T09:46:47Z</time>
      </trkpt>
      <trkpt lat="47.2483" lon="4.94183">
        <ele>490.594</ele>
        <time>2013-03-08T09:46:58Z</time>
      </trkpt>
      <trkpt lat="47.24822" lon="4.94168">
        <ele>491.883</ele>
        <time>2013-03-08T09:47:09Z</time>
      </trkpt>
      <trkpt lat="47.24812" lon="4.94155">
        <ele>492.289</ele>
        <time>2013-03-08T09:47:20Z</time>
      </trkpt>
      <trkpt lat="47.24803" lon="4.94137">
        <ele>493.325</ele>
        <time>2013-03-08T09:47:31Z</time>
      </trkpt>
      <trkpt lat="47.24798" lon="4.94123">
        <ele>492.25</ele>
        <time>2013-03-08T09:47:42Z</time>
      </trkpt>
      <trkpt lat="47.24785" lon="4.94102">
        <ele>492.386</ele>
        <time>2013-03-08T09:47:53Z</time>
      </trkpt>
      <trkpt lat="47.24773" lon="4.94087">
        <ele>493.293</ele>
        <time>2013-03-08T09:48:04Z</time>
      </trkpt>
      <trkpt lat="47.24768" lon="4.94077">
        <ele>494.86</ele>
        <time>2013-03-08T09:48:15Z</time>
      </trkpt>
      <trkpt lat="47.24758" lon="4.9405">
        <ele>494.741</ele>
        <time>2013-03-08T09:48:26Z</time>
      </trkpt>
      <trkpt lat="47.24752" lon="4.94027">
        <ele>495.4</ele>
        <time>2013-03-08T09:48:37Z</time>
      </trkpt>
      <trkpt lat="47.24742" lon="4.94003">
        <ele>497.229</ele>
        <time>2013-03-08T09:48:48Z</time>
      </trkpt>
      <trkpt lat="47.24735" lon="4.93988">
        <ele>500.253</ele>
        <time>2013-03-08T09:48:59Z</time>
      </trkpt>
      <trkpt lat="47.24728" lon="4.9397">
        <ele>499.698</ele>
        <time>2013-03-08T09:49:10Z</time>
      </trkpt>
      <trkpt lat="47.2472" lon="4.93952">
        <ele>500.172</ele>
        <time>2013-03-08T09:49:21Z</time>
      </trkpt>
      <trkpt lat="47.2471" lon="4.93928">
        <ele>500.931</ele>
        <time>2013-03-08T09:49:32Z</time>
      </trkpt>
      <trkpt lat="47.24703" lon="4.93912">
        <ele>501.882</ele>
        <time>2013-03-08T09:49:43Z</time>
      </trkpt>
      <trkpt lat="47.24695" lon="4.93883">
        <ele>502.201</ele>
        <time>2013-03-08T09:49:54Z</time>
      </trkpt>
      <trkpt lat="47.2469" lon="4.93857">
        <ele>504.227</ele>
        <time>2013-03-08T09:50:05Z</time>
      </trkpt>
      <trkpt lat="47.24687" lon="4.93842">
        <ele>504.125</ele>
        <time>2013-03-08T09:50:16Z</time>
      </trkpt>
      <trkpt lat="47.24685" lon="4.93818">
        <ele>504.044</ele>
        <time>2013-03-08T09:50:27Z</time>
      </trkpt>
      <trkpt lat="47.24685" lon="4.93798">
        <ele>504.099</ele>
        <time>2013-03-08T09:50:38Z</time>
      </trkpt>
      <trkpt lat="47.24683" lon="4.93773">
        <ele>503.626</ele>
        <time>2013-03-08T09:50:49Z</time>
      </trkpt>
      <trkpt lat="47.24688" lon="4.9375">
        <ele>502.77</ele>
        <time>2013-03-08T09:51:00Z</time>
      </trkpt>
      <trkpt lat="47.24693" lon="4.93735">
        <ele>502.082</ele>
        <time>2013-03-08T09:51:11Z</time>
      </trkpt>
      <trkpt lat="47.24695" lon="4.93715">
        <ele>502.001</ele>
        <time>2013-03-08T09:51:22Z</time>
      </trkpt>
      <trkpt lat="47.24698" lon="4.93697">
        <ele>502.174</ele>
        <time>2013-03-08T09:51:33Z</time>
      </trkpt>
      <trkpt lat="47.24702" lon="4.93678">
        <ele>502.645</ele>
        <time>2013-03-08T09:51:44Z</time>
      </trkpt>
      <trkpt lat="47.24705" lon="4.9366">
        <ele>504.113</ele>
        <time>2013-03-08T09:51:55Z</time>
      </trkpt>
      <trkpt lat="47.24708" lon="4.93637">
        <ele>506.076</ele>
        <time>2013-03-08T09:52:06Z</time>
      </trkpt>
      <trkpt lat="47.24715" lon="4.93618">
        <ele>507.767</ele>
        <time>2013-03-08T09:52:17Z</time>
      </trkpt>
      <trkpt lat="47.24725" lon="4.936">
        <ele>507.322</ele>
        <time>2013-03-08T09:52:28Z</time>
      </trkpt>
      <trkpt lat="47.24735" lon="4.9358">
        <ele>506.536</ele>
        <time>2013-03-08T09:52:39Z</time>
      </trkpt>
      <trkpt lat="47.24743" lon="4.93558">
        <ele>504.709</ele>
        <time>2013-03-08T09:52:50Z</time>
      </trkpt>
      <trkpt lat="47.2475" lon="4.93542">
        <ele>503.941</ele>
        <time>2013-03-08T09:53:01Z</time>
      </trkpt>
      <trkpt lat="47.2476" lon="4.93528">
        <ele>504.84</ele>
        <time>2013-03-08T09:53:12Z</time>
      </trkpt>
      <trkpt lat="47.2477" lon="4.9351">
        <ele>506.597</ele>
        <time>2013-03-08T09:53:23Z</time>
      </trkpt>
      <trkpt lat="47.2478" lon="4.93495">
        <ele>507.19</ele>
        <time>2013-03-08T09:53:34Z</time>
      </trkpt>
      <trkpt lat="47.24788" lon="4.93483">
        <ele>508.198</ele>
        <time>2013-03-08T09:53:45Z</time>
      </trkpt>
      <trkpt lat="47.24798" lon="4.93465">
        <ele>510.155</ele>
        <time>2013-03-08T09:53:56Z</time>
      </trkpt>
      <trkpt lat="47.2481" lon="4.9345">
        <ele>511.028</ele>
        <time>2013-03-08T09:54:07Z</time>
      </trkpt>
      <trkpt lat="47.24818" lon="4.93433">
        <ele>511.918</ele>
        <time>2013-03-08T09:54:18Z</time>
      </trkpt>
      <trkpt lat="47.2483" lon="4.93415">
        <ele>512.709</ele>
        <time>2013-03-08T09:54:29Z</time>
      </trkpt>
      <trkpt lat="47.2484" lon="4.934">
        <ele>515.484</ele>
        <time>2013-03-08T09:54:40Z</time>
      </trkpt>
      <trkpt lat="47.2485" lon="4.93383">
        <ele>516.563</ele>
        <time>2013-03-08T09:54:51Z</time>
      </trkpt>
      <trkpt lat="47.2486" lon="4.93367">
        <ele>517.377</ele>
        <time>2013-03-08T09:55:02Z</time>
      </trkpt>
      <trkpt lat="47.24868" lon="4.93353">
        <ele>518.172</ele>
        <time>2013-03-08T09:55:13Z</time>
      </trkpt>
      <trkpt lat="47.24878" lon="4.93333">
        <ele>520.446</ele>
        <time>2013-03-08T09:55:24Z</time>
      </trkpt>
      <trkpt lat="47.24888" lon="4.93313">
        <ele>522.828</ele>
        <time>2013-03-08T09:55:35Z</time>
      </trkpt>
      <trkpt lat="47.24897" lon="4.93295">
        <ele>524.187</ele>
        <time>2013-03-08T09:55:46Z</time>
      </trkpt>
      <trkpt lat="47.24907" lon="4.93275">
        <ele>525.19</ele>
        <time>2013-03-08T09:55:57Z</time>
      </trkpt>
      <trkpt lat="47.24917" lon="4.93257">
        <ele>524.725</ele>
        <time>2013-03-08T09:56:08Z</time>
      </trkpt>
      <trkpt lat="47.24922" lon="4.93235">
        <ele>526.392</ele>
        <time>2013-03-08T09:56:19Z</time>
      </trkpt>
      <trkpt lat="47.24927" lon="4.93218">
        <ele>529.766</ele>
        <time>2013-03-08T09:56:30Z</time>
      </trkpt>
      <trkpt lat="47.24933" lon="4.93202">
        <ele>531.157</ele>
        <time>2013-03-08T09:56:41Z</time>
      </trkpt>
      <trkpt lat="47.2494" lon="4.9319">
        <ele>532.833</ele>
        <time>2013-03-08T09:56:52Z</time>
      </trkpt>
      <trkpt lat="47.24947" lon="4.9317">
        <ele>535.103</ele>
        <time>2013-03-08T09:57:03Z</time>
      </trkpt>
      <trkpt lat="47.24953" lon="4.93148">
        <ele>535.742</ele>
        <time>2013-03-08T09:57:14Z</time>
      </trkpt>
      <trkpt lat="47.24962" lon="4.93123">
        <ele>537.147</ele>
        <time>2013-03-08T09:57:25Z</time>
      </trkpt>
      <trkpt lat="47.24968" lon="4.93105">
        <ele>539.129</ele>
        <time>2013-03-08T09:57:36Z</time>
      </trkpt>
      <trkpt lat="47.24973" lon="4.93082">
        <ele>536.588</ele>
        <time>2013-03-08T09:57:47Z</time>
      </trkpt>
      <trkpt lat="47.2498" lon="4.93057">
        <ele>536.459</ele>
        <time>2013-03-08T09:57:58Z</time>
      </trkpt>
      <trkpt lat="47.24985" lon="4.93043">
        <ele>536.473</ele>
        <time>2013-03-08T09:58:09Z</time>
      </trkpt>
      <trkpt lat="47.24993" lon="4.93025">
        <ele>536.238</ele>
        <time>2013-03-08T09:58:20Z</time>
      </trkpt>
      <trkpt lat="47.25007" lon="4.93007">
        <ele>536.7</ele>
        <time>2013-03-08T09:58:31Z</time>
      </trkpt>
      <trkpt lat="47.2502" lon="4.92993">
        <ele>536.458</ele>
        <time>2013-03-08T09:58:42Z</time>
      </trkpt>
      <trkpt lat="47.25033" lon="4.92977">
        <ele>537.045</ele>
        <time>2013-03-08T09:58:53Z</time>
      </trkpt>
      <trkpt lat="47.25045" lon="4.92963">
        <ele>538.74</ele>
        <time>2013-03-08T09:59:04Z</time>
      </trkpt>
      <trkpt lat="47.25057" lon="4.9295">
        <ele>537.858</ele>
        <time>2013-03-08T09:59:15Z</time>
      </trkpt>
      <trkpt lat="47.25067" lon="4.92935">
        <ele>535.116</ele>
        <time>2013-03-08T09:59:26Z</time>
      </trkpt>
      <trkpt lat="47.25077" lon="4.92918">
        <ele>533.329</ele>
        <time>2013-03-08T09:59:37Z</time>
      </trkpt>
      <trkpt lat="47.25083" lon="4.92902">
        <ele>533.087</ele>
        <time>2013-03-08T09:59:48Z</time>
      </trkpt>
      <trkpt lat="47.25088" lon="4.92892">
        <ele>533.41</ele>
        <time>2013-03-08T09:59:59Z</time>
      </trkpt>
      <trkpt lat="47.2509" lon="4.9289">
        <ele>533.312</ele>
        <time>2013-03-08T10:00:10Z</time>
      </trkpt>
      <trkpt lat="47.2509" lon="4.92888">
        <ele>533.217</ele>
        <time>2013-03-08T10:00:21Z</time>
      </trkpt>
      <trkpt lat="47.2509" lon="4.92888">
        <ele>532.425</ele>
        <time>2013-03-08T10:00:32Z</time>
      </trkpt>
      <trkpt lat="47.2509" lon="4.92888">
        <ele>532.425</ele>
        <time>2013-03-08T10:00:43Z</time>
      </trkpt>
      <trkpt lat="47.2509" lon="4.92888">
        <ele>532.425</ele>
        <time>2013-03-08T10:00:54Z</time>
      </trkpt>
      <trkpt lat="47.2509" lon="4.92888">
        <ele>532.498</ele>
        <time>2013-03-08T10:01:05Z</time>
      </trkpt>
      <trkpt lat="47.2509" lon="4.92888">
        <ele>532.498</ele>
        <time>2013-03-08T10:01:16Z</time>
      </trkpt>
      <trkpt lat="47.2509" lon="4.92888">
        <ele>532.498</ele>
        <time>2013-03-08T10:01:27Z</time>
      </trkpt>
      <trkpt lat="47.2509" lon="4.92887">
        <ele>532.569</ele>
        <time>2013-03-08T10:01:38Z</time>
      </trkpt>
      <trkpt lat="47.25092" lon="4.92888">
        <ele>532.788</ele>
        <time>2013-03-08T10:01:49Z</time>
      </trkpt>
      <trkpt lat="47.25092" lon="4.92888">
        <ele>532.854</ele>
        <time>2013-03-08T10:02:00Z</time>
      </trkpt>
      <trkpt lat="47.25092" lon="4.9289">
        <ele>533.161</ele>
        <time>2013-03-08T10:02:11Z</time>
      </trkpt>
      <trkpt lat="47.25092" lon="4.9289">
        <ele>533.161</ele>
        <time>2013-03-08T10:02:22Z</time>
      </trkpt>
      <trkpt lat="47.25102" lon="4.9289">
        <ele>535.106</ele>
        <time>2013-03-08T10:02:33Z</time>
      </trkpt>
      <trkpt lat="47.25117" lon="4.92895">
        <ele>537.954</ele>
        <time>2013-03-08T10:02:44Z</time>
      </trkpt>
      <trkpt lat="47.25132" lon="4.92898">
        <ele>539.16</ele>
        <time>2013-03-08T10:02:55Z</time>
      </trkpt>
      <trkpt lat="47.25145" lon="4.92898">
        <ele>540.447</ele>
        <time>2013-03-08T10:03:06Z</time>
      </trkpt>
      <trkpt lat="47.25158" lon="4.929">
        <ele>542.483</ele>
        <time>2013-03-08T10:03:17Z</time>
      </trkpt>
      <trkpt lat="47.25173" lon="4.92903">
        <ele>542.5</ele>
        <time>2013-03-08T10:03:28Z</time>
      </trkpt>
      <trkpt lat="47.25188" lon="4.92903">
        <ele>544.816</ele>
        <time>2013-03-08T10:03:39Z</time>
      </trkpt>
      <trkpt lat="47.25203" lon="4.92912">
        <ele>547.572</ele>
        <time>2013-03-08T10:03:50Z</time>
      </trkpt>
      <trkpt lat="47.25217" lon="4.92913">
        <ele>550.633</ele>
        <time>2013-03-08T10:04:01Z</time>
      </trkpt>
      <trkpt lat="47.25232" lon="4.92917">
        <ele>553.273</ele>
        <time>2013-03-08T10:04:12Z</time>
      </trkpt>
      <trkpt lat="47.2525" lon="4.92918">
        <ele>552.116</ele>
        <time>2013-03-08T10:04:23Z</time>
      </trkpt>
      <trkpt lat="47.25265" lon="4.92918">
        <ele>551.934</ele>
        <time>2013-03-08T10:04:34Z</time>
      </trkpt>
      <trkpt lat="47.2528" lon="4.92922">
        <ele>553.502</ele>
        <time>2013-03-08T10:04:45Z</time>
      </trkpt>
      <trkpt lat="47.25295" lon="4.92923">
        <ele>554.698</ele>
        <time>2013-03-08T10:04:56Z</time>
      </trkpt>
      <trkpt lat="47.25308" lon="4.92925">
        <ele>556.232</ele>
        <time>2013-03-08T10:05:07Z</time>
      </trkpt>
      <trkpt lat="47.25323" lon="4.92922">
        <ele>559.617</ele>
        <time>2013-03-08T10:05:18Z</time>
      </trkpt>
      <trkpt lat="47.25338" lon="4.92923">
        <ele>563.535</ele>
        <time>2013-03-08T10:05:29Z</time>
      </trkpt>
      <trkpt lat="47.25353" lon="4.9293">
        <ele>563.05</ele>
        <time>2013-03-08T10:05:40Z</time>
      </trkpt>
      <trkpt lat="47.25367" lon="4.92937">
        <ele>563.264</ele>
        <time>2013-03-08T10:05:51Z</time>
      </trkpt>
      <trkpt lat="47.25383" lon="4.92943">
        <ele>563.628</ele>
        <time>2013-03-08T10:06:02Z</time>
      </trkpt>
      <trkpt lat="47.25397" lon="4.9295">
        <ele>562.686</ele>
        <time>2013-03-08T10:06:13Z</time>
      </trkpt>
      <trkpt lat="47.25412" lon="4.9295">
        <ele>562.937</ele>
        <time>2013-03-08T10:06:24Z</time>
      </trkpt>
      <trkpt lat="47.25423" lon="4.9295">
        <ele>561.763</ele>
        <time>2013-03-08T10:06:35Z</time>
      </trkpt>
      <trkpt lat="47.25433" lon="4.9295">
        <ele>559.708</ele>
        <time>2013-03-08T10:06:46Z</time>
      </trkpt>
      <trkpt lat="47.25445" lon="4.92952">
        <ele>557.909</ele>
        <time>2013-03-08T10:06:57Z</time>
      </trkpt>
      <trkpt lat="47.25457" lon="4.92955">
        <ele>557.477</ele>
        <time>2013-03-08T10:07:08Z</time>
      </trkpt>
      <trkpt lat="47.25468" lon="4.92962">
        <ele>556.557</ele>
        <time>2013-03-08T10:07:19Z</time>
      </trkpt>
      <trkpt lat="47.25485" lon="4.92967">
        <ele>557.165</ele>
        <time>2013-03-08T10:07:30Z</time>
      </trkpt>
      <trkpt lat="47.25502" lon="4.92972">
        <ele>555.439</ele>
        <time>2013-03-08T10:07:41Z</time>
      </trkpt>
      <trkpt lat="47.2552" lon="4.92973">
        <ele>555.013</ele>
        <time>2013-03-08T10:07:52Z</time>
      </trkpt>
      <trkpt lat="47.25537" lon="4.92978">
        <ele>555.041</ele>
        <time>2013-03-08T10:08:03Z</time>
      </trkpt>
      <trkpt lat="47.2555" lon="4.92985">
        <ele>555.357</ele>
        <time>2013-03-08T10:08:14Z</time>
      </trkpt>
      <trkpt lat="47.25565" lon="4.92993">
        <ele>553.446</ele>
        <time>2013-03-08T10:08:25Z</time>
      </trkpt>
      <trkpt lat="47.25578" lon="4.93003">
        <ele>550.733</ele>
        <time>2013-03-08T10:08:36Z</time>
      </trkpt>
      <trkpt lat="47.25592" lon="4.93012">
        <ele>550.211</ele>
        <time>2013-03-08T10:08:47Z</time>
      </trkpt>
      <trkpt lat="47.25605" lon="4.93018">
        <ele>549.003</ele>
        <time>2013-03-08T10:08:58Z</time>
      </trkpt>
      <trkpt lat="47.25618" lon="4.93032">
        <ele>546.771</ele>
        <time>2013-03-08T10:09:09Z</time>
      </trkpt>
      <trkpt lat="47.25635" lon="4.93045">
        <ele>547.129</ele>
        <time>2013-03-08T10:09:20Z</time>
      </trkpt>
      <trkpt lat="47.25653" lon="4.93058">
        <ele>547.658</ele>
        <time>2013-03-08T10:09:31Z</time>
      </trkpt>
      <trkpt lat="47.25667" lon="4.9307">
        <ele>546.17</ele>
        <time>2013-03-08T10:09:42Z</time>
      </trkpt>
      <trkpt lat="47.25682" lon="4.93082">
        <ele>545.242</ele>
        <time>2013-03-08T10:09:53Z</time>
      </trkpt>
      <trkpt lat="47.25695" lon="4.93092">
        <ele>547.025</ele>
        <time>2013-03-08T10:10:04Z</time>
      </trkpt>
      <trkpt lat="47.25703" lon="4.93093">
        <ele>546.808</ele>
        <time>2013-03-08T10:10:15Z</time>
      </trkpt>
      <trkpt lat="47.25717" lon="4.93102">
        <ele>547.102</ele>
        <time>2013-03-08T10:10:26Z</time>
      </trkpt>
      <trkpt lat="47.2573" lon="4.93112">
        <ele>546.739</ele>
        <time>2013-03-08T10:10:37Z</time>
      </trkpt>
      <trkpt lat="47.2574" lon="4.93123">
        <ele>546.336</ele>
        <time>2013-03-08T10:10:48Z</time>
      </trkpt>
      <trkpt lat="47.25753" lon="4.93137">
        <ele>546.255</ele>
        <time>2013-03-08T10:10:59Z</time>
      </trkpt>
      <trkpt lat="47.25767" lon="4.93153">
        <ele>545.902</ele>
        <time>2013-03-08T10:11:10Z</time>
      </trkpt>
      <trkpt lat="47.2578" lon="4.93165">
        <ele>545.799</ele>
        <time>2013-03-08T10:11:21Z</time>
      </trkpt>
      <trkpt lat="47.25787" lon="4.93172">
        <ele>544.995</ele>
        <time>2013-03-08T10:11:32Z</time>
      </trkpt>
      <trkpt lat="47.2579" lon="4.93177">
        <ele>545.964</ele>
        <time>2013-03-08T10:11:43Z</time>
      </trkpt>
      <trkpt lat="47.2579" lon="4.93177">
        <ele>545.964</ele>
        <time>2013-03-08T10:11:54Z</time>
      </trkpt>
      <trkpt lat="47.25793" lon="4.93187">
        <ele>545.26</ele>
        <time>2013-03-08T10:12:05Z</time>
      </trkpt>
      <trkpt lat="47.258" lon="4.932">
        <ele>546.253</ele>
        <time>2013-03-08T10:12:16Z</time>
      </trkpt>
      <trkpt lat="47.258" lon="4.9322">
        <ele>547.436</ele>
        <time>2013-03-08T10:12:27Z</time>
      </trkpt>
      <trkpt lat="47.25798" lon="4.93233">
        <ele>547.592</ele>
        <time>2013-03-08T10:12:38Z</time>
      </trkpt>
      <trkpt lat="47.25798" lon="4.93252">
        <ele>546.128</ele>
        <time>2013-03-08T10:12:49Z</time>
      </trkpt>
      <trkpt lat="47.25797" lon="4.9327">
        <ele>546.273</ele>
        <time>2013-03-08T10:13:00Z</time>
      </trkpt>
      <trkpt lat="47.25793" lon="4.9328">
        <ele>545.479</ele>
        <time>2013-03-08T10:13:11Z</time>
      </trkpt>
      <trkpt lat="47.25787" lon="4.93302">
        <ele>545.683</ele>
        <time>2013-03-08T10:13:22Z</time>
      </trkpt>
      <trkpt lat="47.2578" lon="4.93325">
        <ele>544.026</ele>
        <time>2013-03-08T10:13:33Z</time>
      </trkpt>
      <trkpt lat="47.25775" lon="4.93345">
        <ele>543.448</ele>
        <time>2013-03-08T10:13:44Z</time>
      </trkpt>
      <trkpt lat="47.25768" lon="4.93362">
        <ele>543.602</ele>
        <time>2013-03-08T10:13:55Z</time>
      </trkpt>
      <trkpt lat="47.25753" lon="4.9338">
        <ele>541.485</ele>
        <time>2013-03-08T10:14:06Z</time>
      </trkpt>
      <trkpt lat="47.25748" lon="4.93395">
        <ele>540.603</ele>
        <time>2013-03-08T10:14:17Z</time>
      </trkpt>
      <trkpt lat="47.25742" lon="4.93415">
        <ele>542.791</ele>
        <time>2013-03-08T10:14:28Z</time>
      </trkpt>
      <trkpt lat="47.25745" lon="4.93443">
        <ele>546.184</ele>
        <time>2013-03-08T10:14:39Z</time>
      </trkpt>
      <trkpt lat="47.25743" lon="4.93467">
        <ele>544.121</ele>
        <time>2013-03-08T10:14:50Z</time>
      </trkpt>
      <trkpt lat="47.25748" lon="4.93482">
        <ele>542.026</ele>
        <time>2013-03-08T10:15:01Z</time>
      </trkpt>
      <trkpt lat="47.25755" lon="4.93502">
        <ele>541.909</ele>
        <time>2013-03-08T10:15:12Z</time>
      </trkpt>
      <trkpt lat="47.2576" lon="4.93518">
        <ele>541.667</ele>
        <time>2013-03-08T10:15:23Z</time>
      </trkpt>
      <trkpt lat="47.25763" lon="4.9354">
        <ele>541.475</ele>
        <time>2013-03-08T10:15:34Z</time>
      </trkpt>
      <trkpt lat="47.25767" lon="4.93558">
        <ele>541.761</ele>
        <time>2013-03-08T10:15:45Z</time>
      </trkpt>
      <trkpt lat="47.2577" lon="4.93582">
        <ele>542.652</ele>
        <time>2013-03-08T10:15:56Z</time>
      </trkpt>
      <trkpt lat="47.25773" lon="4.93602">
        <ele>542.857</ele>
        <time>2013-03-08T10:16:07Z</time>
      </trkpt>
      <trkpt lat="47.25782" lon="4.93628">
        <ele>542.275</ele>
        <time>2013-03-08T10:16:18Z</time>
      </trkpt>
      <trkpt lat="47.25785" lon="4.9365">
        <ele>541.914</ele>
        <time>2013-03-08T10:16:29Z</time>
      </trkpt>
      <trkpt lat="47.2579" lon="4.9367">
        <ele>541.584</ele>
        <time>2013-03-08T10:16:40Z</time>
      </trkpt>
      <trkpt lat="47.25792" lon="4.93688">
        <ele>540.763</ele>
        <time>2013-03-08T10:16:51Z</time>
      </trkpt>
      <trkpt lat="47.25793" lon="4.93707">
        <ele>541.667</ele>
        <time>2013-03-08T10:17:02Z</time>
      </trkpt>
      <trkpt lat="47.25793" lon="4.93732">
        <ele>542.637</ele>
        <time>2013-03-08T10:17:13Z</time>
      </trkpt>
      <trkpt lat="47.25793" lon="4.93752">
        <ele>541.649</ele>
        <time>2013-03-08T10:17:24Z</time>
      </trkpt>
      <trkpt lat="47.25793" lon="4.93772">
        <ele>541.85</ele>
        <time>2013-03-08T10:17:35Z</time>
      </trkpt>
      <trkpt lat="47.2579" lon="4.93792">
        <ele>539.643</ele>
        <time>2013-03-08T10:17:46Z</time>
      </trkpt>
      <trkpt lat="47.25788" lon="4.93815">
        <ele>540.798</ele>
        <time>2013-03-08T10:17:57Z</time>
      </trkpt>
      <trkpt lat="47.25787" lon="4.93842">
        <ele>541.189</ele>
        <time>2013-03-08T10:18:08Z</time>
      </trkpt>
      <trkpt lat="47.25787" lon="4.93867">
        <ele>543.981</ele>
        <time>2013-03-08T10:18:19Z</time>
      </trkpt>
      <trkpt lat="47.25787" lon="4.9389">
        <ele>546.242</ele>
        <time>2013-03-08T10:18:30Z</time>
      </trkpt>
      <trkpt lat="47.25783" lon="4.93915">
        <ele>544.715</ele>
        <time>2013-03-08T10:18:41Z</time>
      </trkpt>
      <trkpt lat="47.2578" lon="4.93942">
        <ele>544.863</ele>
        <time>2013-03-08T10:18:52Z</time>
      </trkpt>
      <trkpt lat="47.25777" lon="4.93958">
        <ele>544.74</ele>
        <time>2013-03-08T10:19:03Z</time>
      </trkpt>
      <trkpt lat="47.25777" lon="4.93973">
        <ele>543.746</ele>
        <time>2013-03-08T10:19:14Z</time>
      </trkpt>
      <trkpt lat="47.25785" lon="4.93987">
        <ele>540.283</ele>
        <time>2013-03-08T10:19:25Z</time>
      </trkpt>
      <trkpt lat="47.25793" lon="4.94005">
        <ele>538.572</ele>
        <time>2013-03-08T10:19:36Z</time>
      </trkpt>
      <trkpt lat="47.25803" lon="4.9402">
        <ele>536.204</ele>
        <time>2013-03-08T10:19:47Z</time>
      </trkpt>
      <trkpt lat="47.25815" lon="4.94037">
        <ele>533.066</ele>
        <time>2013-03-08T10:19:58Z</time>
      </trkpt>
      <trkpt lat="47.25825" lon="4.94052">
        <ele>531.886</ele>
        <time>2013-03-08T10:20:09Z</time>
      </trkpt>
      <trkpt lat="47.25825" lon="4.94075">
        <ele>530.871</ele>
        <time>2013-03-08T10:20:20Z</time>
      </trkpt>
      <trkpt lat="47.25822" lon="4.94088">
        <ele>529.112</ele>
        <time>2013-03-08T10:20:31Z</time>
      </trkpt>
      <trkpt lat="47.25823" lon="4.94107">
        <ele>524.153</ele>
        <time>2013-03-08T10:20:42Z</time>
      </trkpt>
      <trkpt lat="47.25833" lon="4.94122">
        <ele>521.766</ele>
        <time>2013-03-08T10:20:53Z</time>
      </trkpt>
      <trkpt lat="47.25842" lon="4.94138">
        <ele>519.906</ele>
        <time>2013-03-08T10:21:04Z</time>
      </trkpt>
      <trkpt lat="47.25852" lon="4.94155">
        <ele>516.6</ele>
        <time>2013-03-08T10:21:15Z</time>
      </trkpt>
      <trkpt lat="47.25865" lon="4.94168">
        <ele>512.509</ele>
        <time>2013-03-08T10:21:26Z</time>
      </trkpt>
      <trkpt lat="47.25873" lon="4.94178">
        <ele>510.001</ele>
        <time>2013-03-08T10:21:37Z</time>
      </trkpt>
      <trkpt lat="47.2589" lon="4.94195">
        <ele>507.081</ele>
        <time>2013-03-08T10:21:48Z</time>
      </trkpt>
      <trkpt lat="47.25897" lon="4.94205">
        <ele>506.284</ele>
        <time>2013-03-08T10:21:59Z</time>
      </trkpt>
      <trkpt lat="47.25903" lon="4.94213">
        <ele>504.984</ele>
        <time>2013-03-08T10:22:10Z</time>
      </trkpt>
      <trkpt lat="47.25912" lon="4.94222">
        <ele>504.368</ele>
        <time>2013-03-08T10:22:21Z</time>
      </trkpt>
      <trkpt lat="47.2592" lon="4.94233">
        <ele>502.637</ele>
        <time>2013-03-08T10:22:32Z</time>
      </trkpt>
      <trkpt lat="47.25933" lon="4.94248">
        <ele>501.583</ele>
        <time>2013-03-08T10:22:43Z</time>
      </trkpt>
      <trkpt lat="47.25945" lon="4.94275">
        <ele>500.766</ele>
        <time>2013-03-08T10:22:54Z</time>
      </trkpt>
      <trkpt lat="47.25955" lon="4.94297">
        <ele>500.815</ele>
        <time>2013-03-08T10:23:05Z</time>
      </trkpt>
      <trkpt lat="47.2597" lon="4.9431">
        <ele>502.891</ele>
        <time>2013-03-08T10:23:16Z</time>
      </trkpt>
      <trkpt lat="47.25978" lon="4.94327">
        <ele>505.45</ele>
        <time>2013-03-08T10:23:27Z</time>
      </trkpt>
      <trkpt lat="47.25987" lon="4.9434">
        <ele>504.967</ele>
        <time>2013-03-08T10:23:38Z</time>
      </trkpt>
      <trkpt lat="47.25993" lon="4.9435">
        <ele>504.685</ele>
        <time>2013-03-08T10:23:49Z</time>
      </trkpt>
      <trkpt lat="47.26003" lon="4.94363">
        <ele>502.55</ele>
        <time>2013-03-08T10:24:00Z</time>
      </trkpt>
      <trkpt lat="47.26015" lon="4.94378">
        <ele>502.277</ele>
        <time>2013-03-08T10:24:11Z</time>
      </trkpt>
      <trkpt lat="47.26025" lon="4.94395">
        <ele>501.662</ele>
        <time>2013-03-08T10:24:22Z</time>
      </trkpt>
      <trkpt lat="47.26032" lon="4.94413">
        <ele>501.398</ele>
        <time>2013-03-08T10:24:33Z</time>
      </trkpt>
      <trkpt lat="47.2604" lon="4.94428">
        <ele>502.186</ele>
        <time>2013-03-08T10:24:44Z</time>
      </trkpt>
      <trkpt lat="47.26048" lon="4.94448">
        <ele>503.6</ele>
        <time>2013-03-08T10:24:55Z</time>
      </trkpt>
      <trkpt lat="47.26053" lon="4.94467">
        <ele>503.444</ele>
        <time>2013-03-08T10:25:06Z</time>
      </trkpt>
      <trkpt lat="47.26058" lon="4.94485">
        <ele>502.568</ele>
        <time>2013-03-08T10:25:17Z</time>
      </trkpt>
      <trkpt lat="47.2606" lon="4.94505">
        <ele>502.311</ele>
        <time>2013-03-08T10:25:28Z</time>
      </trkpt>
      <trkpt lat="47.26063" lon="4.9453">
        <ele>501.327</ele>
        <time>2013-03-08T10:25:39Z</time>
      </trkpt>
      <trkpt lat="47.26067" lon="4.9455">
        <ele>502.547</ele>
        <time>2013-03-08T10:25:50Z</time>
      </trkpt>
      <trkpt lat="47.26067" lon="4.94568">
        <ele>501.437</ele>
        <time>2013-03-08T10:26:01Z</time>
      </trkpt>
      <trkpt lat="47.26072" lon="4.9459">
        <ele>500.219</ele>
        <time>2013-03-08T10:26:12Z</time>
      </trkpt>
      <trkpt lat="47.2607" lon="4.94617">
        <ele>498.425</ele>
        <time>2013-03-08T10:26:23Z</time>
      </trkpt>
      <trkpt lat="47.26068" lon="4.94643">
        <ele>495.28</ele>
        <time>2013-03-08T10:26:34Z</time>
      </trkpt>
      <trkpt lat="47.26067" lon="4.94663">
        <ele>494.16</ele>
        <time>2013-03-08T10:26:45Z</time>
      </trkpt>
      <trkpt lat="47.26065" lon="4.94687">
        <ele>492.45</ele>
        <time>2013-03-08T10:26:56Z</time>
      </trkpt>
      <trkpt lat="47.26062" lon="4.94707">
        <ele>489.685</ele>
        <time>2013-03-08T10:27:07Z</time>
      </trkpt>
      <trkpt lat="47.2606" lon="4.94725">
        <ele>489.351</ele>
        <time>2013-03-08T10:27:18Z</time>
      </trkpt>
      <trkpt lat="47.26058" lon="4.94753">
        <ele>486.657</ele>
        <time>2013-03-08T10:27:29Z</time>
      </trkpt>
      <trkpt lat="47.26062" lon="4.94775">
        <ele>485.196</ele>
        <time>2013-03-08T10:27:40Z</time>
      </trkpt>
      <trkpt lat="47.26063" lon="4.94778">
        <ele>484.295</ele>
        <time>2013-03-08T10:27:51Z</time>
      </trkpt>
      <trkpt lat="47.26063" lon="4.9478">
        <ele>483.837</ele>
        <time>2013-03-08T10:28:02Z</time>
      </trkpt>
      <trkpt lat="47.26063" lon="4.94782">
        <ele>483.797</ele>
        <time>2013-03-08T10:28:13Z</time>
      </trkpt>
      <trkpt lat="47.26063" lon="4.94782">
        <ele>483.062</ele>
        <time>2013-03-08T10:28:24Z</time>
      </trkpt>
      <trkpt lat="47.26063" lon="4.94782">
        <ele>482.549</ele>
        <time>2013-03-08T10:28:35Z</time>
      </trkpt>
      <trkpt lat="47.26058" lon="4.9478">
        <ele>481.42</ele>
        <time>2013-03-08T10:28:46Z</time>
      </trkpt>
      <trkpt lat="47.26055" lon="4.94777">
        <ele>480.801</ele>
        <time>2013-03-08T10:28:57Z</time>
      </trkpt>
      <trkpt lat="47.26052" lon="4.94777">
        <ele>479.793</ele>
        <time>2013-03-08T10:29:08Z</time>
      </trkpt>
      <trkpt lat="47.2605" lon="4.94777">
        <ele>479.776</ele>
        <time>2013-03-08T10:29:19Z</time>
      </trkpt>
      <trkpt lat="47.2605" lon="4.94777">
        <ele>480.037</ele>
        <time>2013-03-08T10:29:30Z</time>
      </trkpt>
      <trkpt lat="47.2605" lon="4.94777">
        <ele>480.037</ele>
        <time>2013-03-08T10:29:41Z</time>
      </trkpt>
      <trkpt lat="47.2605" lon="4.94777">
        <ele>480.037</ele>
        <time>2013-03-08T10:29:52Z</time>
      </trkpt>
      <trkpt lat="47.2605" lon="4.94777">
        <ele>480.037</ele>
        <time>2013-03-08T10:30:03Z</time>
      </trkpt>
      <trkpt lat="47.2605" lon="4.94777">
        <ele>480.037</ele>
        <time>2013-03-08T10:30:14Z</time>
      </trkpt>
      <trkpt lat="47.2605" lon="4.94777">
        <ele>480.037</ele>
        <time>2013-03-08T10:30:25Z</time>
      </trkpt>
      <trkpt lat="47.2605" lon="4.94777">
        <ele>480.037</ele>
        <time>2013-03-08T10:30:36Z</time>
      </trkpt>
      <trkpt lat="47.26048" lon="4.94777">
        <ele>479.873</ele>
        <time>2013-03-08T10:30:47Z</time>
      </trkpt>
      <trkpt lat="47.26043" lon="4.9478">
        <ele>481.129</ele>
        <time>2013-03-08T10:30:58Z</time>
      </trkpt>
      <trkpt lat="47.26038" lon="4.94785">
        <ele>480.515</ele>
        <time>2013-03-08T10:31:09Z</time>
      </trkpt>
      <trkpt lat="47.26028" lon="4.94797">
        <ele>483.421</ele>
        <time>2013-03-08T10:31:20Z</time>
      </trkpt>
      <trkpt lat="47.26023" lon="4.94807">
        <ele>485.882</ele>
        <time>2013-03-08T10:31:31Z</time>
      </trkpt>
      <trkpt lat="47.26015" lon="4.94815">
        <ele>486.601</ele>
        <time>2013-03-08T10:31:42Z</time>
      </trkpt>
      <trkpt lat="47.26002" lon="4.9483">
        <ele>487.612</ele>
        <time>2013-03-08T10:31:53Z</time>
      </trkpt>
      <trkpt lat="47.2599" lon="4.94848">
        <ele>487.839</ele>
        <time>2013-03-08T10:32:04Z</time>
      </trkpt>
      <trkpt lat="47.25978" lon="4.9486">
        <ele>490.054</ele>
        <time>2013-03-08T10:32:15Z</time>
      </trkpt>
      <trkpt lat="47.25968" lon="4.9488">
        <ele>491.065</ele>
        <time>2013-03-08T10:32:26Z</time>
      </trkpt>
      <trkpt lat="47.25957" lon="4.949">
        <ele>490.952</ele>
        <time>2013-03-08T10:32:37Z</time>
      </trkpt>
      <trkpt lat="47.25943" lon="4.94918">
        <ele>490.282</ele>
        <time>2013-03-08T10:32:48Z</time>
      </trkpt>
      <trkpt lat="47.25935" lon="4.94938">
        <ele>489.424</ele>
        <time>2013-03-08T10:32:59Z</time>
      </trkpt>
      <trkpt lat="47.25927" lon="4.94958">
        <ele>488.894</ele>
        <time>2013-03-08T10:33:10Z</time>
      </trkpt>
      <trkpt lat="47.2592" lon="4.94975">
        <ele>486.293</ele>
        <time>2013-03-08T10:33:21Z</time>
      </trkpt>
      <trkpt lat="47.25915" lon="4.9499">
        <ele>486.875</ele>
        <time>2013-03-08T10:33:32Z</time>
      </trkpt>
      <trkpt lat="47.2591" lon="4.9501">
        <ele>484.563</ele>
        <time>2013-03-08T10:33:43Z</time>
      </trkpt>
      <trkpt lat="47.25908" lon="4.95032">
        <ele>484.168</ele>
        <time>2013-03-08T10:33:54Z</time>
      </trkpt>
      <trkpt lat="47.25905" lon="4.95055">
        <ele>482.611</ele>
        <time>2013-03-08T10:34:05Z</time>
      </trkpt>
      <trkpt lat="47.25903" lon="4.95077">
        <ele>482.524</ele>
        <time>2013-03-08T10:34:16Z</time>
      </trkpt>
      <trkpt lat="47.259" lon="4.95097">
        <ele>483.05</ele>
        <time>2013-03-08T10:34:27Z</time>
      </trkpt>
      <trkpt lat="47.25902" lon="4.95123">
        <ele>480.833</ele>
        <time>2013-03-08T10:34:38Z</time>
      </trkpt>
      <trkpt lat="47.259" lon="4.95148">
        <ele>478.537</ele>
        <time>2013-03-08T10:34:49Z</time>
      </trkpt>
      <trkpt lat="47.25902" lon="4.95168">
        <ele>479.466</ele>
        <time>2013-03-08T10:35:00Z</time>
      </trkpt>
      <trkpt lat="47.25897" lon="4.95195">
        <ele>476.059</ele>
        <time>2013-03-08T10:35:11Z</time>
      </trkpt>
      <trkpt lat="47.25895" lon="4.95215">
        <ele>472.644</ele>
        <time>2013-03-08T10:35:22Z</time>
      </trkpt>
      <trkpt lat="47.25893" lon="4.95235">
        <ele>469.55</ele>
        <time>2013-03-08T10:35:33Z</time>
      </trkpt>
      <trkpt lat="47.2589" lon="4.95253">
        <ele>467.665</ele>
        <time>2013-03-08T10:35:44Z</time>
      </trkpt>
      <trkpt lat="47.25887" lon="4.95272">
        <ele>468.291</ele>
        <time>2013-03-08T10:35:55Z</time>
      </trkpt>
      <trkpt lat="47.25887" lon="4.95282">
        <ele>467.062</ele>
        <time>2013-03-08T10:36:06Z</time>
      </trkpt>
      <trkpt lat="47.25888" lon="4.95295">
        <ele>466.518</ele>
        <time>2013-03-08T10:36:17Z</time>
      </trkpt>
      <trkpt lat="47.25887" lon="4.9531">
        <ele>465.921</ele>
        <time>2013-03-08T10:36:28Z</time>
      </trkpt>
      <trkpt lat="47.25885" lon="4.95323">
        <ele>462.282</ele>
        <time>2013-03-08T10:36:39Z</time>
      </trkpt>
      <trkpt lat="47.25883" lon="4.95335">
        <ele>460.42</ele>
        <time>2013-03-08T10:36:50Z</time>
      </trkpt>
      <trkpt lat="47.25875" lon="4.9536">
        <ele>459.354</ele>
        <time>2013-03-08T10:37:01Z</time>
      </trkpt>
      <trkpt lat="47.25873" lon="4.95378">
        <ele>459.116</ele>
        <time>2013-03-08T10:37:12Z</time>
      </trkpt>
      <trkpt lat="47.25863" lon="4.95402">
        <ele>458.436</ele>
        <time>2013-03-08T10:37:23Z</time>
      </trkpt>
      <trkpt lat="47.25857" lon="4.95427">
        <ele>458.197</ele>
        <time>2013-03-08T10:37:34Z</time>
      </trkpt>
      <trkpt lat="47.25848" lon="4.9545">
        <ele>454.797</ele>
        <time>2013-03-08T10:37:45Z</time>
      </trkpt>
      <trkpt lat="47.25845" lon="4.95475">
        <ele>455.307</ele>
        <time>2013-03-08T10:37:56Z</time>
      </trkpt>
      <trkpt lat="47.25837" lon="4.95497">
        <ele>453.813</ele>
        <time>2013-03-08T10:38:07Z</time>
      </trkpt>
      <trkpt lat="47.25835" lon="4.95523">
        <ele>453.264</ele>
        <time>2013-03-08T10:38:18Z</time>
      </trkpt>
      <trkpt lat="47.25828" lon="4.95547">
        <ele>452.351</ele>
        <time>2013-03-08T10:38:29Z</time>
      </trkpt>
      <trkpt lat="47.25825" lon="4.95562">
        <ele>453.209</ele>
        <time>2013-03-08T10:38:40Z</time>
      </trkpt>
      <trkpt lat="47.25817" lon="4.95582">
        <ele>454.18</ele>
        <time>2013-03-08T10:38:51Z</time>
      </trkpt>
      <trkpt lat="47.2581" lon="4.95607">
        <ele>454.35</ele>
        <time>2013-03-08T10:39:02Z</time>
      </trkpt>
      <trkpt lat="47.258" lon="4.95627">
        <ele>452.354</ele>
        <time>2013-03-08T10:39:13Z</time>
      </trkpt>
      <trkpt lat="47.25792" lon="4.95642">
        <ele>451.775</ele>
        <time>2013-03-08T10:39:24Z</time>
      </trkpt>
      <trkpt lat="47.25782" lon="4.95652">
        <ele>453.671</ele>
        <time>2013-03-08T10:39:35Z</time>
      </trkpt>
      <trkpt lat="47.25775" lon="4.95657">
        <ele>453.98</ele>
        <time>2013-03-08T10:39:46Z</time>
      </trkpt>
      <trkpt lat="47.25767" lon="4.95662">
        <ele>453.691</ele>
        <time>2013-03-08T10:39:57Z</time>
      </trkpt>
      <trkpt lat="47.25748" lon="4.95673">
        <ele>453.246</ele>
        <time>2013-03-08T10:40:08Z</time>
      </trkpt>
      <trkpt lat="47.25728" lon="4.95673">
        <ele>449.684</ele>
        <time>2013-03-08T10:40:19Z</time>
      </trkpt>
      <trkpt lat="47.25717" lon="4.9568">
        <ele>447.432</ele>
        <time>2013-03-08T10:40:30Z</time>
      </trkpt>
      <trkpt lat="47.25702" lon="4.95687">
        <ele>444.814</ele>
        <time>2013-03-08T10:40:41Z</time>
      </trkpt>
      <trkpt lat="47.25685" lon="4.95695">
        <ele>443.403</ele>
        <time>2013-03-08T10:40:52Z</time>
      </trkpt>
      <trkpt lat="47.25673" lon="4.957">
        <ele>443.401</ele>
        <time>2013-03-08T10:41:03Z</time>
      </trkpt>
      <trkpt lat="47.25658" lon="4.95698">
        <ele>441.961</ele>
        <time>2013-03-08T10:41:14Z</time>
      </trkpt>
      <trkpt lat="47.25645" lon="4.95705">
        <ele>440.963</ele>
        <time>2013-03-08T10:41:25Z</time>
      </trkpt>
      <trkpt lat="47.25625" lon="4.95715">
        <ele>437.094</ele>
        <time>2013-03-08T10:41:36Z</time>
      </trkpt>
      <trkpt lat="47.25608" lon="4.95722">
        <ele>436.01</ele>
        <time>2013-03-08T10:41:47Z</time>
      </trkpt>
      <trkpt lat="47.25592" lon="4.95733">
        <ele>435.861</ele>
        <time>2013-03-08T10:41:58Z</time>
      </trkpt>
      <trkpt lat="47.2557" lon="4.95745">
        <ele>436.917</ele>
        <time>2013-03-08T10:42:09Z</time>
      </trkpt>
      <trkpt lat="47.2555" lon="4.95755">
        <ele>435.083</ele>
        <time>2013-03-08T10:42:20Z</time>
      </trkpt>
      <trkpt lat="47.2554" lon="4.95772">
        <ele>436.335</ele>
        <time>2013-03-08T10:42:31Z</time>
      </trkpt>
      <trkpt lat="47.25538" lon="4.95783">
        <ele>438.375</ele>
        <time>2013-03-08T10:42:42Z</time>
      </trkpt>
      <trkpt lat="47.25537" lon="4.95787">
        <ele>437.59</ele>
        <time>2013-03-08T10:42:53Z</time>
      </trkpt>
      <trkpt lat="47.25532" lon="4.95785">
        <ele>435.73</ele>
        <time>2013-03-08T10:43:04Z</time>
      </trkpt>
      <trkpt lat="47.2553" lon="4.95787">
        <ele>435.166</ele>
        <time>2013-03-08T10:43:15Z</time>
      </trkpt>
      <trkpt lat="47.25525" lon="4.95783">
        <ele>434.633</ele>
        <time>2013-03-08T10:43:26Z</time>
      </trkpt>
      <trkpt lat="47.2552" lon="4.95778">
        <ele>435.07</ele>
        <time>2013-03-08T10:43:37Z</time>
      </trkpt>
      <trkpt lat="47.25515" lon="4.95772">
        <ele>433.462</ele>
        <time>2013-03-08T10:43:48Z</time>
      </trkpt>
      <trkpt lat="47.25512" lon="4.95772">
        <ele>434.125</ele>
        <time>2013-03-08T10:43:59Z</time>
      </trkpt>
      <trkpt lat="47.25507" lon="4.95767">
        <ele>433.076</ele>
        <time>2013-03-08T10:44:10Z</time>
      </trkpt>
      <trkpt lat="47.25505" lon="4.95767">
        <ele>433.593</ele>
        <time>2013-03-08T10:44:21Z</time>
      </trkpt>
      <trkpt lat="47.25498" lon="4.95762">
        <ele>434.419</ele>
        <time>2013-03-08T10:44:32Z</time>
      </trkpt>
      <trkpt lat="47.25497" lon="4.9576">
        <ele>436.324</ele>
        <time>2013-03-08T10:44:43Z</time>
      </trkpt>
      <trkpt lat="47.25493" lon="4.95758">
        <ele>437.795</ele>
        <time>2013-03-08T10:44:54Z</time>
      </trkpt>
      <trkpt lat="47.25487" lon="4.95757">
        <ele>438.834</ele>
        <time>2013-03-08T10:45:05Z</time>
      </trkpt>
      <trkpt lat="47.2548" lon="4.95753">
        <ele>438.096</ele>
        <time>2013-03-08T10:45:16Z</time>
      </trkpt>
      <trkpt lat="47.25477" lon="4.95752">
        <ele>438.229</ele>
        <time>2013-03-08T10:45:27Z</time>
      </trkpt>
      <trkpt lat="47.25473" lon="4.9575">
        <ele>440.421</ele>
        <time>2013-03-08T10:45:38Z</time>
      </trkpt>
      <trkpt lat="47.25472" lon="4.95747">
        <ele>442.542</ele>
        <time>2013-03-08T10:45:49Z</time>
      </trkpt>
      <trkpt lat="47.25468" lon="4.95745">
        <ele>444.894</ele>
        <time>2013-03-08T10:46:00Z</time>
      </trkpt>
      <trkpt lat="47.25463" lon="4.9575">
        <ele>448.993</ele>
        <time>2013-03-08T10:46:11Z</time>
      </trkpt>
      <trkpt lat="47.2546" lon="4.95752">
        <ele>450.832</ele>
        <time>2013-03-08T10:46:22Z</time>
      </trkpt>
      <trkpt lat="47.25458" lon="4.95753">
        <ele>451.225</ele>
        <time>2013-03-08T10:46:33Z</time>
      </trkpt>
      <trkpt lat="47.2546" lon="4.95765">
        <ele>450.739</ele>
        <time>2013-03-08T10:46:44Z</time>
      </trkpt>
      <trkpt lat="47.25457" lon="4.95773">
        <ele>450.445</ele>
        <time>2013-03-08T10:46:55Z</time>
      </trkpt>
      <trkpt lat="47.25455" lon="4.95777">
        <ele>450.874</ele>
        <time>2013-03-08T10:47:06Z</time>
      </trkpt>
      <trkpt lat="47.2545" lon="4.95783">
        <ele>450.236</ele>
        <time>2013-03-08T10:47:17Z</time>
      </trkpt>
      <trkpt lat="47.25448" lon="4.95787">
        <ele>452.353</ele>
        <time>2013-03-08T10:47:28Z</time>
      </trkpt>
      <trkpt lat="47.25448" lon="4.95788">
        <ele>451.906</ele>
        <time>2013-03-08T10:47:39Z</time>
      </trkpt>
      <trkpt lat="47.25447" lon="4.958">
        <ele>451.603</ele>
        <time>2013-03-08T10:47:50Z</time>
      </trkpt>
      <trkpt lat="47.25442" lon="4.95808">
        <ele>449.564</ele>
        <time>2013-03-08T10:48:01Z</time>
      </trkpt>
      <trkpt lat="47.25443" lon="4.95812">
        <ele>449.654</ele>
        <time>2013-03-08T10:48:12Z</time>
      </trkpt>
      <trkpt lat="47.25443" lon="4.95817">
        <ele>448.773</ele>
        <time>2013-03-08T10:48:23Z</time>
      </trkpt>
      <trkpt lat="47.25443" lon="4.95822">
        <ele>449.472</ele>
        <time>2013-03-08T10:48:34Z</time>
      </trkpt>
      <trkpt lat="47.2544" lon="4.95828">
        <ele>450.143</ele>
        <time>2013-03-08T10:48:45Z</time>
      </trkpt>
      <trkpt lat="47.25438" lon="4.95832">
        <ele>449.902</ele>
        <time>2013-03-08T10:48:56Z</time>
      </trkpt>
      <trkpt lat="47.25438" lon="4.95835">
        <ele>450.023</ele>
        <time>2013-03-08T10:49:07Z</time>
      </trkpt>
      <trkpt lat="47.25435" lon="4.9584">
        <ele>449.588</ele>
        <time>2013-03-08T10:49:18Z</time>
      </trkpt>
      <trkpt lat="47.25433" lon="4.95842">
        <ele>449.77</ele>
        <time>2013-03-08T10:49:29Z</time>
      </trkpt>
      <trkpt lat="47.25433" lon="4.95842">
        <ele>449.906</ele>
        <time>2013-03-08T10:49:40Z</time>
      </trkpt>
      <trkpt lat="47.25433" lon="4.95843">
        <ele>449.987</ele>
        <time>2013-03-08T10:49:51Z</time>
      </trkpt>
      <trkpt lat="47.25433" lon="4.95848">
        <ele>451.831</ele>
        <time>2013-03-08T10:50:02Z</time>
      </trkpt>
      <trkpt lat="47.25433" lon="4.95848">
        <ele>452.404</ele>
        <time>2013-03-08T10:50:13Z</time>
      </trkpt>
      <trkpt lat="47.25432" lon="4.9585">
        <ele>452.37</ele>
        <time>2013-03-08T10:50:24Z</time>
      </trkpt>
      <trkpt lat="47.25432" lon="4.95853">
        <ele>453.043</ele>
        <time>2013-03-08T10:50:35Z</time>
      </trkpt>
      <trkpt lat="47.25432" lon="4.95855">
        <ele>453.368</ele>
        <time>2013-03-08T10:50:46Z</time>
      </trkpt>
      <trkpt lat="47.2543" lon="4.95855">
        <ele>453.416</ele>
        <time>2013-03-08T10:50:57Z</time>
      </trkpt>
      <trkpt lat="47.25428" lon="4.95858">
        <ele>453.926</ele>
        <time>2013-03-08T10:51:08Z</time>
      </trkpt>
      <trkpt lat="47.25428" lon="4.95858">
        <ele>453.767</ele>
        <time>2013-03-08T10:51:19Z</time>
      </trkpt>
      <trkpt lat="47.25427" lon="4.95863">
        <ele>452.874</ele>
        <time>2013-03-08T10:51:30Z</time>
      </trkpt>
      <trkpt lat="47.25425" lon="4.95867">
        <ele>452.891</ele>
        <time>2013-03-08T10:51:41Z</time>
      </trkpt>
      <trkpt lat="47.25423" lon="4.9587">
        <ele>452.929</ele>
        <time>2013-03-08T10:51:52Z</time>
      </trkpt>
      <trkpt lat="47.25423" lon="4.95873">
        <ele>452.207</ele>
        <time>2013-03-08T10:52:03Z</time>
      </trkpt>
      <trkpt lat="47.25422" lon="4.95875">
        <ele>451.87</ele>
        <time>2013-03-08T10:52:14Z</time>
      </trkpt>
      <trkpt lat="47.2542" lon="4.95875">
        <ele>451.403</ele>
        <time>2013-03-08T10:52:25Z</time>
      </trkpt>
      <trkpt lat="47.2542" lon="4.95875">
        <ele>451.022</ele>
        <time>2013-03-08T10:52:36Z</time>
      </trkpt>
      <trkpt lat="47.25418" lon="4.95877">
        <ele>450.321</ele>
        <time>2013-03-08T10:52:47Z</time>
      </trkpt>
      <trkpt lat="47.25415" lon="4.95878">
        <ele>450.134</ele>
        <time>2013-03-08T10:52:58Z</time>
      </trkpt>
      <trkpt lat="47.25412" lon="4.9588">
        <ele>450.882</ele>
        <time>2013-03-08T10:53:09Z</time>
      </trkpt>
      <trkpt lat="47.25412" lon="4.9588">
        <ele>450.2</ele>
        <time>2013-03-08T10:53:20Z</time>
      </trkpt>
      <trkpt lat="47.2541" lon="4.9588">
        <ele>449.919</ele>
        <time>2013-03-08T10:53:31Z</time>
      </trkpt>
      <trkpt lat="47.2541" lon="4.95878">
        <ele>449.57</ele>
        <time>2013-03-08T10:53:42Z</time>
      </trkpt>
      <trkpt lat="47.2541" lon="4.95878">
        <ele>449.57</ele>
        <time>2013-03-08T10:53:53Z</time>
      </trkpt>
      <trkpt lat="47.25412" lon="4.95873">
        <ele>448.278</ele>
        <time>2013-03-08T10:54:04Z</time>
      </trkpt>
      <trkpt lat="47.25403" lon="4.95862">
        <ele>446.934</ele>
        <time>2013-03-08T10:54:15Z</time>
      </trkpt>
      <trkpt lat="47.25393" lon="4.95855">
        <ele>447.116</ele>
        <time>2013-03-08T10:54:26Z</time>
      </trkpt>
      <trkpt lat="47.25382" lon="4.95843">
        <ele>450.097</ele>
        <time>2013-03-08T10:54:37Z</time>
      </trkpt>
      <trkpt lat="47.25375" lon="4.95827">
        <ele>453.228</ele>
        <time>2013-03-08T10:54:48Z</time>
      </trkpt>
      <trkpt lat="47.25368" lon="4.95817">
        <ele>455.781</ele>
        <time>2013-03-08T10:54:59Z</time>
      </trkpt>
      <trkpt lat="47.2536" lon="4.958">
        <ele>455.966</ele>
        <time>2013-03-08T10:55:10Z</time>
      </trkpt>
      <trkpt lat="47.25357" lon="4.95793">
        <ele>455.644</ele>
        <time>2013-03-08T10:55:21Z</time>
      </trkpt>
      <trkpt lat="47.2535" lon="4.95778">
        <ele>459.569</ele>
        <time>2013-03-08T10:55:32Z</time>
      </trkpt>
      <trkpt lat="47.25345" lon="4.95763">
        <ele>459.397</ele>
        <time>2013-03-08T10:55:43Z</time>
      </trkpt>
      <trkpt lat="47.25337" lon="4.95747">
        <ele>459.77</ele>
        <time>2013-03-08T10:55:54Z</time>
      </trkpt>
      <trkpt lat="47.25332" lon="4.95733">
        <ele>462.14</ele>
        <time>2013-03-08T10:56:05Z</time>
      </trkpt>
      <trkpt lat="47.25323" lon="4.9572">
        <ele>465.603</ele>
        <time>2013-03-08T10:56:16Z</time>
      </trkpt>
      <trkpt lat="47.25313" lon="4.95705">
        <ele>466.703</ele>
        <time>2013-03-08T10:56:27Z</time>
      </trkpt>
      <trkpt lat="47.25307" lon="4.95688">
        <ele>468.293</ele>
        <time>2013-03-08T10:56:38Z</time>
      </trkpt>
      <trkpt lat="47.25298" lon="4.95668">
        <ele>469.541</ele>
        <time>2013-03-08T10:56:49Z</time>
      </trkpt>
      <trkpt lat="47.25288" lon="4.95648">
        <ele>469.766</ele>
        <time>2013-03-08T10:57:00Z</time>
      </trkpt>
      <trkpt lat="47.25277" lon="4.9563">
        <ele>468.609</ele>
        <time>2013-03-08T10:57:11Z</time>
      </trkpt>
      <trkpt lat="47.25267" lon="4.9561">
        <ele>467.05</ele>
        <time>2013-03-08T10:57:22Z</time>
      </trkpt>
      <trkpt lat="47.25263" lon="4.95587">
        <ele>465.574</ele>
        <time>2013-03-08T10:57:33Z</time>
      </trkpt>
      <trkpt lat="47.25258" lon="4.95568">
        <ele>465.019</ele>
        <time>2013-03-08T10:57:44Z</time>
      </trkpt>
      <trkpt lat="47.25245" lon="4.9556">
        <ele>464.996</ele>
        <time>2013-03-08T10:57:55Z</time>
      </trkpt>
      <trkpt lat="47.25235" lon="4.95547">
        <ele>463.707</ele>
        <time>2013-03-08T10:58:06Z</time>
      </trkpt>
      <trkpt lat="47.25227" lon="4.9554">
        <ele>464.692</ele>
        <time>2013-03-08T10:58:17Z</time>
      </trkpt>
      <trkpt lat="47.25215" lon="4.95533">
        <ele>464.692</ele>
        <time>2013-03-08T10:58:28Z</time>
      </trkpt>
      <trkpt lat="47.25202" lon="4.9553">
        <ele>463.683</ele>
        <time>2013-03-08T10:58:39Z</time>
      </trkpt>
      <trkpt lat="47.25187" lon="4.95538">
        <ele>463.725</ele>
        <time>2013-03-08T10:58:50Z</time>
      </trkpt>
      <trkpt lat="47.25172" lon="4.9555">
        <ele>461.662</ele>
        <time>2013-03-08T10:59:01Z</time>
      </trkpt>
      <trkpt lat="47.25157" lon="4.95555">
        <ele>458.954</ele>
        <time>2013-03-08T10:59:12Z</time>
      </trkpt>
      <trkpt lat="47.25138" lon="4.9556">
        <ele>456.305</ele>
        <time>2013-03-08T10:59:23Z</time>
      </trkpt>
      <trkpt lat="47.25122" lon="4.95578">
        <ele>453.422</ele>
        <time>2013-03-08T10:59:34Z</time>
      </trkpt>
      <trkpt lat="47.2511" lon="4.95597">
        <ele>451.187</ele>
        <time>2013-03-08T10:59:45Z</time>
      </trkpt>
      <trkpt lat="47.25097" lon="4.95617">
        <ele>449.069</ele>
        <time>2013-03-08T10:59:56Z</time>
      </trkpt>
      <trkpt lat="47.25083" lon="4.95633">
        <ele>447.625</ele>
        <time>2013-03-08T11:00:07Z</time>
      </trkpt>
      <trkpt lat="47.25077" lon="4.9565">
        <ele>446.925</ele>
        <time>2013-03-08T11:00:18Z</time>
      </trkpt>
      <trkpt lat="47.25065" lon="4.95667">
        <ele>445.257</ele>
        <time>2013-03-08T11:00:29Z</time>
      </trkpt>
      <trkpt lat="47.25053" lon="4.95685">
        <ele>442.841</ele>
        <time>2013-03-08T11:00:40Z</time>
      </trkpt>
      <trkpt lat="47.25043" lon="4.95702">
        <ele>438.84</ele>
        <time>2013-03-08T11:00:51Z</time>
      </trkpt>
      <trkpt lat="47.25035" lon="4.95715">
        <ele>438.162</ele>
        <time>2013-03-08T11:01:02Z</time>
      </trkpt>
      <trkpt lat="47.2502" lon="4.95733">
        <ele>437.118</ele>
        <time>2013-03-08T11:01:13Z</time>
      </trkpt>
      <trkpt lat="47.2501" lon="4.95752">
        <ele>436.217</ele>
        <time>2013-03-08T11:01:24Z</time>
      </trkpt>
      <trkpt lat="47.24997" lon="4.95768">
        <ele>435.821</ele>
        <time>2013-03-08T11:01:35Z</time>
      </trkpt>
      <trkpt lat="47.24985" lon="4.95788">
        <ele>433.218</ele>
        <time>2013-03-08T11:01:46Z</time>
      </trkpt>
      <trkpt lat="47.24975" lon="4.95805">
        <ele>431.994</ele>
        <time>2013-03-08T11:01:57Z</time>
      </trkpt>
      <trkpt lat="47.24962" lon="4.9582">
        <ele>428.923</ele>
        <time>2013-03-08T11:02:08Z</time>
      </trkpt>
      <trkpt lat="47.2495" lon="4.9584">
        <ele>426.594</ele>
        <time>2013-03-08T11:02:19Z</time>
      </trkpt>
      <trkpt lat="47.2494" lon="4.95858">
        <ele>425.904</ele>
        <time>2013-03-08T11:02:30Z</time>
      </trkpt>
      <trkpt lat="47.24925" lon="4.95877">
        <ele>424.2</ele>
        <time>2013-03-08T11:02:41Z</time>
      </trkpt>
      <trkpt lat="47.2491" lon="4.95897">
        <ele>422.547</ele>
        <time>2013-03-08T11:02:52Z</time>
      </trkpt>
      <trkpt lat="47.249" lon="4.95918">
        <ele>421.524</ele>
        <time>2013-03-08T11:03:03Z</time>
      </trkpt>
      <trkpt lat="47.2489" lon="4.95942">
        <ele>421.145</ele>
        <time>2013-03-08T11:03:14Z</time>
      </trkpt>
      <trkpt lat="47.24885" lon="4.95967">
        <ele>421.365</ele>
        <time>2013-03-08T11:03:25Z</time>
      </trkpt>
      <trkpt lat="47.2488" lon="4.95995">
        <ele>421.235</ele>
        <time>2013-03-08T11:03:36Z</time>
      </trkpt>
      <trkpt lat="47.24882" lon="4.96012">
        <ele>421.33</ele>
        <time>2013-03-08T11:03:47Z</time>
      </trkpt>
      <trkpt lat="47.24877" lon="4.96032">
        <ele>422.433</ele>
        <time>2013-03-08T11:03:58Z</time>
      </trkpt>
      <trkpt lat="47.24867" lon="4.96055">
        <ele>421.688</ele>
        <time>2013-03-08T11:04:09Z</time>
      </trkpt>
      <trkpt lat="47.24852" lon="4.96075">
        <ele>422.811</ele>
        <time>2013-03-08T11:04:20Z</time>
      </trkpt>
      <trkpt lat="47.24837" lon="4.96095">
        <ele>422.342</ele>
        <time>2013-03-08T11:04:31Z</time>
      </trkpt>
      <trkpt lat="47.24832" lon="4.96118">
        <ele>421</ele>
        <time>2013-03-08T11:04:42Z</time>
      </trkpt>
      <trkpt lat="47.2482" lon="4.96142">
        <ele>420.272</ele>
        <time>2013-03-08T11:04:53Z</time>
      </trkpt>
      <trkpt lat="47.2481" lon="4.96168">
        <ele>417.787</ele>
        <time>2013-03-08T11:05:04Z</time>
      </trkpt>
      <trkpt lat="47.24802" lon="4.96192">
        <ele>417.46</ele>
        <time>2013-03-08T11:05:15Z</time>
      </trkpt>
      <trkpt lat="47.24798" lon="4.96217">
        <ele>414.787</ele>
        <time>2013-03-08T11:05:26Z</time>
      </trkpt>
      <trkpt lat="47.2479" lon="4.96243">
        <ele>411.432</ele>
        <time>2013-03-08T11:05:37Z</time>
      </trkpt>
      <trkpt lat="47.24788" lon="4.96268">
        <ele>409.425</ele>
        <time>2013-03-08T11:05:48Z</time>
      </trkpt>
      <trkpt lat="47.24783" lon="4.96295">
        <ele>404.374</ele>
        <time>2013-03-08T11:05:59Z</time>
      </trkpt>
      <trkpt lat="47.24787" lon="4.96313">
        <ele>395.8</ele>
        <time>2013-03-08T11:06:10Z</time>
      </trkpt>
      <trkpt lat="47.24783" lon="4.96307">
        <ele>390.397</ele>
        <time>2013-03-08T11:06:21Z</time>
      </trkpt>
      <trkpt lat="47.24772" lon="4.96297">
        <ele>388.473</ele>
        <time>2013-03-08T11:06:32Z</time>
      </trkpt>
      <trkpt lat="47.24768" lon="4.96295">
        <ele>390.058</ele>
        <time>2013-03-08T11:06:43Z</time>
      </trkpt>
      <trkpt lat="47.2476" lon="4.963">
        <ele>391.204</ele>
        <time>2013-03-08T11:06:54Z</time>
      </trkpt>
      <trkpt lat="47.24755" lon="4.96307">
        <ele>389.793</ele>
        <time>2013-03-08T11:07:05Z</time>
      </trkpt>
      <trkpt lat="47.2475" lon="4.96318">
        <ele>388.458</ele>
        <time>2013-03-08T11:07:16Z</time>
      </trkpt>
      <trkpt lat="47.2475" lon="4.96333">
        <ele>386.999</ele>
        <time>2013-03-08T11:07:27Z</time>
      </trkpt>
      <trkpt lat="47.24742" lon="4.96355">
        <ele>384.765</ele>
        <time>2013-03-08T11:07:38Z</time>
      </trkpt>
      <trkpt lat="47.24733" lon="4.96373">
        <ele>384.194</ele>
        <time>2013-03-08T11:07:49Z</time>
      </trkpt>
      <trkpt lat="47.24728" lon="4.96397">
        <ele>383.335</ele>
        <time>2013-03-08T11:08:00Z</time>
      </trkpt>
      <trkpt lat="47.24727" lon="4.96422">
        <ele>380.524</ele>
        <time>2013-03-08T11:08:11Z</time>
      </trkpt>
      <trkpt lat="47.24725" lon="4.9644">
        <ele>379.756</ele>
        <time>2013-03-08T11:08:22Z</time>
      </trkpt>
      <trkpt lat="47.24722" lon="4.96457">
        <ele>377.725</ele>
        <time>2013-03-08T11:08:33Z</time>
      </trkpt>
      <trkpt lat="47.24725" lon="4.9648">
        <ele>372.988</ele>
        <time>2013-03-08T11:08:44Z</time>
      </trkpt>
      <trkpt lat="47.24725" lon="4.96482">
        <ele>372.789</ele>
        <time>2013-03-08T11:08:55Z</time>
      </trkpt>
      <trkpt lat="47.24725" lon="4.9651">
        <ele>368.454</ele>
        <time>2013-03-08T11:09:06Z</time>
      </trkpt>
      <trkpt lat="47.24723" lon="4.96537">
        <ele>366.17</ele>
        <time>2013-03-08T11:09:17Z</time>
      </trkpt>
      <trkpt lat="47.24717" lon="4.96547">
        <ele>363.055</ele>
        <time>2013-03-08T11:09:28Z</time>
      </trkpt>
      <trkpt lat="47.2471" lon="4.96557">
        <ele>360.787</ele>
        <time>2013-03-08T11:09:39Z</time>
      </trkpt>
      <trkpt lat="47.24698" lon="4.96562">
        <ele>358.341</ele>
        <time>2013-03-08T11:09:50Z</time>
      </trkpt>
      <trkpt lat="47.24692" lon="4.96567">
        <ele>354.85</ele>
        <time>2013-03-08T11:10:01Z</time>
      </trkpt>
      <trkpt lat="47.24677" lon="4.96573">
        <ele>353.76</ele>
        <time>2013-03-08T11:10:12Z</time>
      </trkpt>
      <trkpt lat="47.2466" lon="4.96582">
        <ele>351.349</ele>
        <time>2013-03-08T11:10:23Z</time>
      </trkpt>
      <trkpt lat="47.24652" lon="4.9659">
        <ele>351.027</ele>
        <time>2013-03-08T11:10:34Z</time>
      </trkpt>
      <trkpt lat="47.24642" lon="4.96592">
        <ele>351.881</ele>
        <time>2013-03-08T11:10:45Z</time>
      </trkpt>
      <trkpt lat="47.24627" lon="4.96595">
        <ele>352.832</ele>
        <time>2013-03-08T11:10:56Z</time>
      </trkpt>
      <trkpt lat="47.24615" lon="4.96603">
        <ele>352.221</ele>
        <time>2013-03-08T11:11:07Z</time>
      </trkpt>
      <trkpt lat="47.2461" lon="4.96605">
        <ele>352</ele>
        <time>2013-03-08T11:11:18Z</time>
      </trkpt>
      <trkpt lat="47.24608" lon="4.96605">
        <ele>351.803</ele>
        <time>2013-03-08T11:11:29Z</time>
      </trkpt>
      <trkpt lat="47.24605" lon="4.96605">
        <ele>351.411</ele>
        <time>2013-03-08T11:11:40Z</time>
      </trkpt>
      <trkpt lat="47.246" lon="4.96598">
        <ele>349.592</ele>
        <time>2013-03-08T11:11:51Z</time>
      </trkpt>
      <trkpt lat="47.246" lon="4.96598">
        <ele>349.592</ele>
        <time>2013-03-08T11:12:02Z</time>
      </trkpt>
    </trkseg>
  </trk>
</gpx>